UAE36P OMDB-LSZH
Flight info
| Callsign | UAE36P |
|---|---|
| Flight time | 7h 40m |
| Altitude | 38000 |
| Route | ANVIX L223 TARDI N629 BOTAM Y855 LAKLU Q204 NALKI G652 TOKRA DCT ALROK DCT BOSOB DCT ITRUX Y511 PMA Z712 WEJ L677 CVO L617 TANSA UL613 XANIS DCT DIMIS DCT VRANA DCT ELTIB DCT NEMEK DCT ADOMO DCT GIMIX DCT ERKIR DCT KPT L856 NEGRA |
| Aircraft | A388/J-SADE2E3FGHIJ3J4J5M1RWXY/LB1D1 |
Departure
| Time | 2026-05-05 08:07 |
|---|---|
| Airport | Dubai International Airport (OMDB) |
Arrival
| Time | 2026-05-05 15:47 |
|---|---|
| Airport | Zürich Airport (LSZH) |
| Time | Latitude | Longitude | Altitude | Speed | Heading |
|---|---|---|---|---|---|
| 2026-05-05 07:37 | 25.24436 | 55.37222 | 26 ft | 0 kts | 211° |
| 2026-05-05 07:56 | 25.24444 | 55.37227 | 26 ft | 3 kts | 211° |
| 2026-05-05 07:56 | 25.24461 | 55.37239 | 32 ft | 3 kts | 211° |
| 2026-05-05 07:56 | 25.24477 | 55.37250 | 32 ft | 2 kts | 211° |
| 2026-05-05 07:56 | 25.24494 | 55.37259 | 32 ft | 3 kts | 189° |
| 2026-05-05 07:57 | 25.24513 | 55.37259 | 32 ft | 3 kts | 153° |
| 2026-05-05 07:57 | 25.24528 | 55.37246 | 32 ft | 3 kts | 126° |
| 2026-05-05 07:57 | 25.24539 | 55.37228 | 32 ft | 3 kts | 122° |
| 2026-05-05 07:57 | 25.24550 | 55.37209 | 32 ft | 3 kts | 122° |
| 2026-05-05 07:58 | 25.24553 | 55.37202 | 32 ft | 1 kts | 122° |
| 2026-05-05 08:02 | 25.24547 | 55.37213 | 31 ft | 4 kts | 122° |
| 2026-05-05 08:02 | 25.24527 | 55.37249 | 28 ft | 7 kts | 122° |
| 2026-05-05 08:02 | 25.24497 | 55.37303 | 29 ft | 9 kts | 122° |
| 2026-05-05 08:02 | 25.24461 | 55.37367 | 29 ft | 11 kts | 122° |
| 2026-05-05 08:03 | 25.24420 | 55.37440 | 29 ft | 12 kts | 121° |
| 2026-05-05 08:03 | 25.24376 | 55.37520 | 29 ft | 13 kts | 121° |
| 2026-05-05 08:03 | 25.24329 | 55.37605 | 29 ft | 13 kts | 121° |
| 2026-05-05 08:03 | 25.24279 | 55.37693 | 29 ft | 14 kts | 119° |
| 2026-05-05 08:04 | 25.24288 | 55.37781 | 26 ft | 12 kts | 52° |
| 2026-05-05 08:04 | 25.24361 | 55.37847 | 27 ft | 17 kts | 34° |
| 2026-05-05 08:04 | 25.24457 | 55.37921 | 29 ft | 16 kts | 34° |
| 2026-05-05 08:04 | 25.24552 | 55.37992 | 29 ft | 17 kts | 34° |
| 2026-05-05 08:05 | 25.24653 | 55.38063 | 29 ft | 14 kts | 32° |
| 2026-05-05 08:05 | 25.24726 | 55.38111 | 31 ft | 10 kts | 17° |
| 2026-05-05 08:05 | 25.24775 | 55.38086 | 31 ft | 8 kts | 301° |
| 2026-05-05 08:05 | 25.24810 | 55.38020 | 30 ft | 12 kts | 301° |
| 2026-05-05 08:06 | 25.24937 | 55.37790 | 30 ft | 68 kts | 302° |
| 2026-05-05 08:06 | 25.25302 | 55.37131 | 31 ft | 130 kts | 301° |
| 2026-05-05 08:06 | 25.25857 | 55.36134 | 29 ft | 171 kts | 302° |
| 2026-05-05 08:06 | 25.26512 | 55.34966 | 264 ft | 179 kts | 302° |
| 2026-05-05 08:07 | 25.27144 | 55.33801 | 759 ft | 175 kts | 301° |
| 2026-05-05 08:07 | 25.27743 | 55.32649 | 1145 ft | 178 kts | 300° |
| 2026-05-05 08:07 | 25.28377 | 55.31418 | 1368 ft | 191 kts | 301° |
| 2026-05-05 08:07 | 25.29077 | 55.30152 | 1710 ft | 195 kts | 297° |
| 2026-05-05 08:08 | 25.29326 | 55.28660 | 1949 ft | 203 kts | 258° |
| 2026-05-05 08:08 | 25.28852 | 55.27202 | 2193 ft | 205 kts | 242° |
| 2026-05-05 08:08 | 25.28168 | 55.25783 | 2299 ft | 213 kts | 239° |
| 2026-05-05 08:08 | 25.27458 | 55.24334 | 2502 ft | 215 kts | 240° |
| 2026-05-05 08:09 | 25.26777 | 55.22864 | 2732 ft | 215 kts | 242° |
| 2026-05-05 08:09 | 25.26119 | 55.21376 | 2949 ft | 216 kts | 243° |
| 2026-05-05 08:09 | 25.25464 | 55.19852 | 3042 ft | 224 kts | 243° |
| 2026-05-05 08:09 | 25.24790 | 55.18303 | 3103 ft | 229 kts | 238° |
| 2026-05-05 08:10 | 25.23673 | 55.17058 | 3141 ft | 231 kts | 206° |
| 2026-05-05 08:10 | 25.22129 | 55.16645 | 3188 ft | 230 kts | 175° |
| 2026-05-05 08:10 | 25.20513 | 55.16816 | 3244 ft | 242 kts | 172° |
| 2026-05-05 08:10 | 25.18878 | 55.17329 | 3445 ft | 249 kts | 146° |
| 2026-05-05 08:11 | 25.17682 | 55.18673 | 3920 ft | 247 kts | 117° |
| 2026-05-05 08:11 | 25.16889 | 55.20391 | 4226 ft | 260 kts | 115° |
| 2026-05-05 08:11 | 25.16040 | 55.22219 | 4487 ft | 273 kts | 116° |
| 2026-05-05 08:11 | 25.15155 | 55.24078 | 5016 ft | 275 kts | 116° |
| 2026-05-05 08:12 | 25.14266 | 55.25931 | 5504 ft | 279 kts | 116° |
| 2026-05-05 08:12 | 25.13354 | 55.27825 | 6119 ft | 276 kts | 117° |
| 2026-05-05 08:12 | 25.12455 | 55.29690 | 6716 ft | 277 kts | 117° |
| 2026-05-05 08:12 | 25.11544 | 55.31580 | 7200 ft | 280 kts | 117° |
| 2026-05-05 08:13 | 25.10636 | 55.33485 | 7729 ft | 281 kts | 114° |
| 2026-05-05 08:13 | 25.09825 | 55.35462 | 8241 ft | 284 kts | 113° |
| 2026-05-05 08:13 | 25.09009 | 55.37458 | 8770 ft | 286 kts | 113° |
| 2026-05-05 08:13 | 25.08184 | 55.39465 | 9308 ft | 289 kts | 113° |
| 2026-05-05 08:14 | 25.07349 | 55.41489 | 9835 ft | 291 kts | 113° |
| 2026-05-05 08:14 | 25.06521 | 55.43542 | 10216 ft | 299 kts | 112° |
| 2026-05-05 08:14 | 25.05700 | 55.45683 | 10325 ft | 315 kts | 111° |
| 2026-05-05 08:14 | 25.04835 | 55.47965 | 10470 ft | 330 kts | 112° |
| 2026-05-05 08:15 | 25.03928 | 55.50348 | 10615 ft | 343 kts | 112° |
| 2026-05-05 08:15 | 25.02989 | 55.52796 | 10975 ft | 350 kts | 112° |
| 2026-05-05 08:15 | 25.02012 | 55.55272 | 11402 ft | 354 kts | 116° |
| 2026-05-05 08:15 | 25.00788 | 55.57643 | 11829 ft | 358 kts | 121° |
| 2026-05-05 08:16 | 24.99494 | 55.60006 | 12290 ft | 361 kts | 121° |
| 2026-05-05 08:16 | 24.98216 | 55.62364 | 12712 ft | 366 kts | 121° |
| 2026-05-05 08:16 | 24.96906 | 55.64790 | 13142 ft | 371 kts | 121° |
| 2026-05-05 08:16 | 24.95581 | 55.67243 | 13610 ft | 373 kts | 121° |
| 2026-05-05 08:17 | 24.94246 | 55.69700 | 14073 ft | 375 kts | 123° |
| 2026-05-05 08:17 | 24.92732 | 55.72044 | 14539 ft | 377 kts | 127° |
| 2026-05-05 08:17 | 24.91172 | 55.74381 | 14957 ft | 380 kts | 127° |
| 2026-05-05 08:17 | 24.89609 | 55.76738 | 15384 ft | 382 kts | 127° |
| 2026-05-05 08:18 | 24.88037 | 55.79111 | 15867 ft | 384 kts | 127° |
| 2026-05-05 08:18 | 24.86449 | 55.81509 | 16233 ft | 389 kts | 127° |
| 2026-05-05 08:18 | 24.84876 | 55.83880 | 16714 ft | 390 kts | 127° |
| 2026-05-05 08:18 | 24.83262 | 55.86308 | 17101 ft | 394 kts | 127° |
| 2026-05-05 08:19 | 24.81621 | 55.88740 | 17527 ft | 397 kts | 128° |
| 2026-05-05 08:19 | 24.79966 | 55.91175 | 17996 ft | 398 kts | 128° |
| 2026-05-05 08:19 | 24.78261 | 55.93588 | 18390 ft | 400 kts | 132° |
| 2026-05-05 08:19 | 24.76302 | 55.95760 | 18749 ft | 401 kts | 139° |
| 2026-05-05 08:20 | 24.74240 | 55.97849 | 19103 ft | 404 kts | 138° |
| 2026-05-05 08:20 | 24.72880 | 55.99242 | 19353 ft | 405 kts | 138° |
| 2026-05-05 08:20 | 24.70810 | 56.01369 | 19697 ft | 408 kts | 138° |
| 2026-05-05 08:20 | 24.68057 | 56.04203 | 20217 ft | 410 kts | 138° |
| 2026-05-05 08:21 | 24.65974 | 56.06349 | 20573 ft | 412 kts | 138° |
| 2026-05-05 08:21 | 24.63878 | 56.08509 | 20965 ft | 413 kts | 138° |
| 2026-05-05 08:21 | 24.61776 | 56.10674 | 21311 ft | 416 kts | 138° |
| 2026-05-05 08:21 | 24.59660 | 56.12852 | 21665 ft | 418 kts | 138° |
| 2026-05-05 08:22 | 24.57534 | 56.15044 | 22013 ft | 420 kts | 136° |
| 2026-05-05 08:22 | 24.56203 | 56.16600 | 22226 ft | 423 kts | 131° |
| 2026-05-05 08:22 | 24.54293 | 56.19065 | 22569 ft | 425 kts | 131° |
| 2026-05-05 08:22 | 24.52365 | 56.21534 | 22894 ft | 427 kts | 132° |
| 2026-05-05 08:23 | 24.49789 | 56.24815 | 23363 ft | 430 kts | 132° |
| 2026-05-05 08:23 | 24.47831 | 56.27306 | 23644 ft | 432 kts | 132° |
| 2026-05-05 08:23 | 24.46503 | 56.28994 | 23823 ft | 433 kts | 132° |
| 2026-05-05 08:23 | 24.44530 | 56.31502 | 24074 ft | 436 kts | 132° |
| 2026-05-05 08:24 | 24.42563 | 56.34003 | 24274 ft | 440 kts | 132° |
| 2026-05-05 08:24 | 24.40560 | 56.36547 | 24533 ft | 442 kts | 132° |
| 2026-05-05 08:24 | 24.38547 | 56.39104 | 24778 ft | 444 kts | 132° |
| 2026-05-05 08:24 | 24.36523 | 56.41672 | 25034 ft | 446 kts | 132° |
| 2026-05-05 08:25 | 24.33830 | 56.45087 | 25359 ft | 449 kts | 132° |
| 2026-05-05 08:25 | 24.32446 | 56.46842 | 25546 ft | 450 kts | 132° |
| 2026-05-05 08:25 | 24.30392 | 56.49445 | 25792 ft | 452 kts | 132° |
| 2026-05-05 08:25 | 24.28472 | 56.52195 | 26041 ft | 456 kts | 127° |
| 2026-05-05 08:26 | 24.26644 | 56.54976 | 26293 ft | 458 kts | 127° |
| 2026-05-05 08:26 | 24.24769 | 56.57810 | 26553 ft | 461 kts | 128° |
| 2026-05-05 08:26 | 24.22878 | 56.60659 | 26796 ft | 464 kts | 128° |
| 2026-05-05 08:26 | 24.20975 | 56.63523 | 27073 ft | 466 kts | 128° |
| 2026-05-05 08:27 | 24.19061 | 56.66401 | 27356 ft | 469 kts | 128° |
| 2026-05-05 08:27 | 24.17136 | 56.69295 | 27659 ft | 471 kts | 128° |
| 2026-05-05 08:27 | 24.15200 | 56.72205 | 27956 ft | 474 kts | 128° |
| 2026-05-05 08:27 | 24.13252 | 56.75130 | 28251 ft | 477 kts | 128° |
| 2026-05-05 08:28 | 24.11318 | 56.78032 | 28544 ft | 480 kts | 128° |
| 2026-05-05 08:28 | 24.09349 | 56.80987 | 28855 ft | 482 kts | 128° |
| 2026-05-05 08:28 | 24.07365 | 56.83960 | 29181 ft | 485 kts | 129° |
| 2026-05-05 08:28 | 24.05133 | 56.86723 | 29426 ft | 485 kts | 140° |
| 2026-05-05 08:29 | 24.02453 | 56.88940 | 29750 ft | 483 kts | 152° |
| 2026-05-05 08:29 | 23.99439 | 56.90523 | 30025 ft | 480 kts | 164° |
| 2026-05-05 08:29 | 23.96230 | 56.91479 | 30330 ft | 478 kts | 172° |
| 2026-05-05 08:30 | 23.89729 | 56.92899 | 30916 ft | 482 kts | 172° |
| 2026-05-05 08:30 | 23.86442 | 56.93683 | 31227 ft | 485 kts | 171° |
| 2026-05-05 08:30 | 23.83146 | 56.94523 | 31516 ft | 488 kts | 170° |
| 2026-05-05 08:30 | 23.79838 | 56.95397 | 31779 ft | 491 kts | 170° |
| 2026-05-05 08:31 | 23.76512 | 56.96288 | 32078 ft | 493 kts | 170° |
| 2026-05-05 08:31 | 23.73178 | 56.97184 | 32374 ft | 495 kts | 170° |
| 2026-05-05 08:31 | 23.69822 | 56.98086 | 32659 ft | 498 kts | 170° |
| 2026-05-05 08:31 | 23.66451 | 56.98991 | 32965 ft | 500 kts | 170° |
| 2026-05-05 08:32 | 23.63112 | 56.99884 | 33245 ft | 502 kts | 170° |
| 2026-05-05 08:32 | 23.59711 | 57.00795 | 33508 ft | 505 kts | 170° |
| 2026-05-05 08:32 | 23.56291 | 57.01710 | 33786 ft | 507 kts | 170° |
| 2026-05-05 08:32 | 23.52854 | 57.02628 | 34028 ft | 510 kts | 170° |
| 2026-05-05 08:33 | 23.49407 | 57.03550 | 34320 ft | 511 kts | 170° |
| 2026-05-05 08:33 | 23.45953 | 57.04472 | 34632 ft | 511 kts | 170° |
| 2026-05-05 08:33 | 23.42496 | 57.05374 | 34977 ft | 509 kts | 173° |
| 2026-05-05 08:33 | 23.39014 | 57.05888 | 35405 ft | 502 kts | 181° |
| 2026-05-05 08:34 | 23.35594 | 57.05897 | 35862 ft | 495 kts | 188° |
| 2026-05-05 08:34 | 23.32207 | 57.05437 | 36268 ft | 488 kts | 195° |
| 2026-05-05 08:34 | 23.28903 | 57.04642 | 36643 ft | 486 kts | 197° |
| 2026-05-05 08:34 | 23.25606 | 57.03852 | 37030 ft | 484 kts | 196° |
| 2026-05-05 08:35 | 23.22322 | 57.03078 | 37426 ft | 482 kts | 196° |
| 2026-05-05 08:35 | 23.19048 | 57.02310 | 37804 ft | 481 kts | 196° |
| 2026-05-05 08:35 | 23.15762 | 57.01538 | 37867 ft | 486 kts | 196° |
| 2026-05-05 08:36 | 23.09219 | 57.00001 | 37871 ft | 481 kts | 196° |
| 2026-05-05 08:36 | 23.02650 | 56.98458 | 37866 ft | 484 kts | 196° |
| 2026-05-05 08:37 | 22.96059 | 56.96911 | 37870 ft | 485 kts | 195° |
| 2026-05-05 08:37 | 22.89525 | 56.95170 | 37857 ft | 481 kts | 204° |
| 2026-05-05 08:38 | 22.83741 | 56.91712 | 37851 ft | 474 kts | 221° |
| 2026-05-05 08:38 | 22.79251 | 56.86641 | 37855 ft | 469 kts | 237° |
| 2026-05-05 08:39 | 22.76096 | 56.80491 | 37849 ft | 467 kts | 244° |
| 2026-05-05 08:39 | 22.73094 | 56.74244 | 37847 ft | 468 kts | 244° |
| 2026-05-05 08:40 | 22.70082 | 56.68001 | 37838 ft | 467 kts | 244° |
| 2026-05-05 08:40 | 22.67093 | 56.61806 | 37825 ft | 467 kts | 244° |
| 2026-05-05 08:41 | 22.64088 | 56.55578 | 37801 ft | 467 kts | 243° |
| 2026-05-05 08:41 | 22.61083 | 56.49360 | 37793 ft | 467 kts | 243° |
| 2026-05-05 08:42 | 22.58072 | 56.43138 | 37793 ft | 467 kts | 243° |
| 2026-05-05 08:42 | 22.55057 | 56.36916 | 37790 ft | 467 kts | 243° |
| 2026-05-05 08:43 | 22.52061 | 56.30730 | 37792 ft | 467 kts | 243° |
| 2026-05-05 08:43 | 22.49041 | 56.24500 | 37795 ft | 468 kts | 243° |
| 2026-05-05 08:44 | 22.46017 | 56.18270 | 37794 ft | 468 kts | 243° |
| 2026-05-05 08:44 | 22.43010 | 56.12084 | 37797 ft | 468 kts | 243° |
| 2026-05-05 08:45 | 22.39979 | 56.05855 | 37792 ft | 468 kts | 243° |
| 2026-05-05 08:45 | 22.36948 | 55.99636 | 37793 ft | 468 kts | 243° |
| 2026-05-05 08:46 | 22.33897 | 55.93422 | 37790 ft | 468 kts | 243° |
| 2026-05-05 08:46 | 22.30843 | 55.87214 | 37785 ft | 468 kts | 243° |
| 2026-05-05 08:47 | 22.27811 | 55.81051 | 37785 ft | 468 kts | 243° |
| 2026-05-05 08:47 | 22.24757 | 55.74849 | 37776 ft | 468 kts | 243° |
| 2026-05-05 08:48 | 22.21714 | 55.68647 | 37776 ft | 467 kts | 243° |
| 2026-05-05 08:48 | 22.18701 | 55.62491 | 37775 ft | 467 kts | 244° |
| 2026-05-05 08:49 | 22.16341 | 55.55979 | 37774 ft | 466 kts | 255° |
| 2026-05-05 08:49 | 22.15089 | 55.49124 | 37778 ft | 466 kts | 264° |
| 2026-05-05 08:50 | 22.14540 | 55.42157 | 37778 ft | 466 kts | 264° |
| 2026-05-05 08:50 | 22.13969 | 55.35236 | 37780 ft | 466 kts | 264° |
| 2026-05-05 08:51 | 22.13390 | 55.28268 | 37780 ft | 466 kts | 264° |
| 2026-05-05 08:51 | 22.12812 | 55.21298 | 37775 ft | 467 kts | 264° |
| 2026-05-05 08:52 | 22.12231 | 55.14336 | 37777 ft | 466 kts | 264° |
| 2026-05-05 08:52 | 22.11651 | 55.07416 | 37776 ft | 466 kts | 264° |
| 2026-05-05 08:53 | 22.11064 | 55.00452 | 37772 ft | 466 kts | 264° |
| 2026-05-05 08:53 | 22.10474 | 54.93490 | 37771 ft | 466 kts | 264° |
| 2026-05-05 08:54 | 22.09881 | 54.86530 | 37771 ft | 466 kts | 264° |
| 2026-05-05 08:54 | 22.09290 | 54.79619 | 37769 ft | 466 kts | 264° |
| 2026-05-05 08:55 | 22.08693 | 54.72671 | 37770 ft | 466 kts | 264° |
| 2026-05-05 08:55 | 22.08092 | 54.65716 | 37770 ft | 466 kts | 264° |
| 2026-05-05 08:56 | 22.07488 | 54.58759 | 37766 ft | 466 kts | 264° |
| 2026-05-05 08:56 | 22.06881 | 54.51808 | 37768 ft | 466 kts | 264° |
| 2026-05-05 08:57 | 22.06276 | 54.44910 | 37761 ft | 466 kts | 264° |
| 2026-05-05 08:57 | 22.05663 | 54.37956 | 37759 ft | 466 kts | 264° |
| 2026-05-05 08:58 | 22.05047 | 54.30998 | 37765 ft | 466 kts | 264° |
| 2026-05-05 08:58 | 22.04427 | 54.24035 | 37764 ft | 467 kts | 264° |
| 2026-05-05 08:59 | 22.03809 | 54.17120 | 37760 ft | 467 kts | 264° |
| 2026-05-05 08:59 | 22.03182 | 54.10148 | 37764 ft | 467 kts | 264° |
| 2026-05-05 09:00 | 22.02552 | 54.03171 | 37768 ft | 468 kts | 264° |
| 2026-05-05 09:00 | 22.01923 | 53.96240 | 37782 ft | 467 kts | 264° |
| 2026-05-05 09:01 | 22.01288 | 53.89270 | 37783 ft | 467 kts | 264° |
| 2026-05-05 09:01 | 22.00651 | 53.82316 | 37777 ft | 467 kts | 264° |
| 2026-05-05 09:02 | 22.00011 | 53.75357 | 37773 ft | 466 kts | 264° |
| 2026-05-05 09:02 | 21.99369 | 53.68413 | 37769 ft | 465 kts | 264° |
| 2026-05-05 09:03 | 21.98730 | 53.61533 | 37759 ft | 465 kts | 264° |
| 2026-05-05 09:03 | 21.98084 | 53.54609 | 37757 ft | 464 kts | 264° |
| 2026-05-05 09:04 | 21.97436 | 53.47691 | 37757 ft | 464 kts | 264° |
| 2026-05-05 09:04 | 21.96789 | 53.40823 | 37758 ft | 464 kts | 263° |
| 2026-05-05 09:05 | 21.96135 | 53.33909 | 37755 ft | 464 kts | 263° |
| 2026-05-05 09:05 | 21.95479 | 53.26997 | 37756 ft | 464 kts | 263° |
| 2026-05-05 09:06 | 21.94819 | 53.20078 | 37758 ft | 464 kts | 263° |
| 2026-05-05 09:06 | 21.94155 | 53.13154 | 37760 ft | 465 kts | 263° |
| 2026-05-05 09:07 | 21.93492 | 53.06273 | 37766 ft | 465 kts | 263° |
| 2026-05-05 09:07 | 21.92823 | 52.99348 | 37760 ft | 465 kts | 263° |
| 2026-05-05 09:08 | 21.92149 | 52.92411 | 37763 ft | 466 kts | 263° |
| 2026-05-05 09:08 | 21.91472 | 52.85472 | 37766 ft | 466 kts | 263° |
| 2026-05-05 09:09 | 21.90797 | 52.78576 | 37765 ft | 466 kts | 263° |
| 2026-05-05 09:09 | 21.90403 | 52.71612 | 37768 ft | 467 kts | 270° |
| 2026-05-05 09:10 | 21.91065 | 52.64654 | 37768 ft | 468 kts | 279° |
| 2026-05-05 09:10 | 21.92349 | 52.57781 | 37771 ft | 468 kts | 279° |
| 2026-05-05 09:11 | 21.93600 | 52.50948 | 37782 ft | 468 kts | 279° |
| 2026-05-05 09:11 | 21.94859 | 52.44073 | 37769 ft | 468 kts | 279° |
| 2026-05-05 09:12 | 21.96117 | 52.37205 | 37767 ft | 467 kts | 279° |
| 2026-05-05 09:12 | 21.97361 | 52.30388 | 37762 ft | 467 kts | 279° |
| 2026-05-05 09:13 | 21.98609 | 52.23538 | 37763 ft | 466 kts | 279° |
| 2026-05-05 09:13 | 21.99853 | 52.16685 | 37762 ft | 466 kts | 279° |
| 2026-05-05 09:14 | 22.01094 | 52.09835 | 37753 ft | 466 kts | 279° |
| 2026-05-05 09:14 | 22.02332 | 52.02984 | 37755 ft | 466 kts | 279° |
| 2026-05-05 09:15 | 22.03559 | 51.96178 | 37772 ft | 466 kts | 278° |
| 2026-05-05 09:15 | 22.04792 | 51.89326 | 37768 ft | 465 kts | 278° |
| 2026-05-05 09:16 | 22.06020 | 51.82474 | 37772 ft | 465 kts | 278° |
| 2026-05-05 09:16 | 22.07245 | 51.75630 | 37768 ft | 465 kts | 278° |
| 2026-05-05 09:17 | 22.08468 | 51.68777 | 37763 ft | 466 kts | 278° |
| 2026-05-05 09:17 | 22.09681 | 51.61964 | 37758 ft | 466 kts | 278° |
| 2026-05-05 09:18 | 22.10900 | 51.55101 | 37766 ft | 466 kts | 278° |
| 2026-05-05 09:18 | 22.12117 | 51.48231 | 37760 ft | 467 kts | 278° |
| 2026-05-05 09:19 | 22.13324 | 51.41401 | 37782 ft | 467 kts | 278° |
| 2026-05-05 09:19 | 22.14534 | 51.34533 | 37778 ft | 466 kts | 278° |
| 2026-05-05 09:20 | 22.15743 | 51.27657 | 37772 ft | 466 kts | 278° |
| 2026-05-05 09:20 | 22.16948 | 51.20789 | 37774 ft | 466 kts | 278° |
| 2026-05-05 09:21 | 22.18139 | 51.13978 | 37768 ft | 465 kts | 278° |
| 2026-05-05 09:21 | 22.19336 | 51.07117 | 37767 ft | 465 kts | 278° |
| 2026-05-05 09:22 | 22.20529 | 51.00259 | 37758 ft | 465 kts | 278° |
| 2026-05-05 09:22 | 22.21719 | 50.93406 | 37763 ft | 465 kts | 278° |
| 2026-05-05 09:23 | 22.22897 | 50.86598 | 37768 ft | 465 kts | 278° |
| 2026-05-05 09:23 | 22.24081 | 50.79742 | 37767 ft | 465 kts | 278° |
| 2026-05-05 09:24 | 22.25262 | 50.72886 | 37768 ft | 464 kts | 278° |
| 2026-05-05 09:24 | 22.26438 | 50.66037 | 37765 ft | 464 kts | 278° |
| 2026-05-05 09:25 | 22.27613 | 50.59177 | 37765 ft | 465 kts | 278° |
| 2026-05-05 09:25 | 22.28778 | 50.52361 | 37763 ft | 465 kts | 278° |
| 2026-05-05 09:26 | 22.29948 | 50.45495 | 37768 ft | 465 kts | 278° |
| 2026-05-05 09:26 | 22.31116 | 50.38625 | 37766 ft | 465 kts | 278° |
| 2026-05-05 09:27 | 22.32282 | 50.31751 | 37786 ft | 465 kts | 278° |
| 2026-05-05 09:27 | 22.33437 | 50.24918 | 37763 ft | 465 kts | 278° |
| 2026-05-05 09:28 | 22.34597 | 50.18042 | 37764 ft | 465 kts | 278° |
| 2026-05-05 09:28 | 22.35752 | 50.11170 | 37767 ft | 465 kts | 277° |
| 2026-05-05 09:29 | 22.36906 | 50.04290 | 37769 ft | 465 kts | 277° |
| 2026-05-05 09:29 | 22.38050 | 49.97455 | 37763 ft | 465 kts | 277° |
| 2026-05-05 09:30 | 22.39198 | 49.90573 | 37759 ft | 465 kts | 277° |
| 2026-05-05 09:30 | 22.40344 | 49.83685 | 37752 ft | 466 kts | 277° |
| 2026-05-05 09:31 | 22.41487 | 49.76796 | 37762 ft | 466 kts | 277° |
| 2026-05-05 09:31 | 22.42622 | 49.69938 | 37750 ft | 467 kts | 277° |
| 2026-05-05 09:32 | 22.43763 | 49.63022 | 37747 ft | 468 kts | 277° |
| 2026-05-05 09:32 | 22.44903 | 49.56096 | 37754 ft | 468 kts | 277° |
| 2026-05-05 09:33 | 22.46042 | 49.49160 | 37754 ft | 469 kts | 277° |
| 2026-05-05 09:33 | 22.47171 | 49.42262 | 37772 ft | 469 kts | 277° |
| 2026-05-05 09:34 | 22.48304 | 49.35320 | 37769 ft | 469 kts | 277° |
| 2026-05-05 09:34 | 22.49435 | 49.28367 | 37758 ft | 469 kts | 277° |
| 2026-05-05 09:35 | 22.50564 | 49.21416 | 37785 ft | 469 kts | 277° |
| 2026-05-05 09:35 | 22.52241 | 49.11046 | 37766 ft | 468 kts | 277° |
| 2026-05-05 09:36 | 22.53358 | 49.04117 | 37762 ft | 467 kts | 277° |
| 2026-05-05 09:36 | 22.54470 | 48.97196 | 37765 ft | 467 kts | 277° |
| 2026-05-05 09:37 | 22.55578 | 48.90283 | 37750 ft | 466 kts | 277° |
| 2026-05-05 09:37 | 22.56682 | 48.83374 | 37752 ft | 466 kts | 277° |
| 2026-05-05 09:38 | 22.57774 | 48.76521 | 37754 ft | 466 kts | 277° |
| 2026-05-05 09:38 | 22.58873 | 48.69611 | 37769 ft | 465 kts | 276° |
| 2026-05-05 09:39 | 22.59966 | 48.62709 | 37775 ft | 465 kts | 276° |
| 2026-05-05 09:39 | 22.61054 | 48.55823 | 37768 ft | 464 kts | 276° |
| 2026-05-05 09:40 | 22.62132 | 48.48981 | 37764 ft | 464 kts | 276° |
| 2026-05-05 09:40 | 22.63214 | 48.42098 | 37758 ft | 464 kts | 276° |
| 2026-05-05 09:41 | 22.64292 | 48.35212 | 37760 ft | 464 kts | 276° |
| 2026-05-05 09:41 | 22.65366 | 48.28336 | 37761 ft | 464 kts | 276° |
| 2026-05-05 09:42 | 22.66432 | 48.21493 | 37779 ft | 464 kts | 276° |
| 2026-05-05 09:42 | 22.67505 | 48.14605 | 37783 ft | 464 kts | 276° |
| 2026-05-05 09:43 | 22.68574 | 48.07722 | 37783 ft | 463 kts | 276° |
| 2026-05-05 09:43 | 22.69427 | 48.00834 | 37778 ft | 460 kts | 271° |
| 2026-05-05 09:44 | 22.69981 | 47.93981 | 37775 ft | 460 kts | 272° |
| 2026-05-05 09:44 | 22.70572 | 47.87082 | 37778 ft | 460 kts | 272° |
| 2026-05-05 09:45 | 22.71151 | 47.80185 | 37777 ft | 460 kts | 272° |
| 2026-05-05 09:45 | 22.71722 | 47.73296 | 37777 ft | 460 kts | 272° |
| 2026-05-05 09:46 | 22.72287 | 47.66444 | 37783 ft | 460 kts | 272° |
| 2026-05-05 09:46 | 22.72853 | 47.59551 | 37798 ft | 460 kts | 272° |
| 2026-05-05 09:47 | 22.73415 | 47.52661 | 37810 ft | 459 kts | 272° |
| 2026-05-05 09:47 | 22.73973 | 47.45785 | 37813 ft | 458 kts | 271° |
| 2026-05-05 09:48 | 22.74524 | 47.38957 | 37809 ft | 458 kts | 271° |
| 2026-05-05 09:48 | 22.75075 | 47.32092 | 37803 ft | 457 kts | 271° |
| 2026-05-05 09:49 | 22.75622 | 47.25239 | 37809 ft | 457 kts | 271° |
| 2026-05-05 09:49 | 22.76167 | 47.18375 | 37811 ft | 457 kts | 271° |
| 2026-05-05 09:50 | 22.76708 | 47.11570 | 37811 ft | 457 kts | 271° |
| 2026-05-05 09:50 | 22.77253 | 47.04711 | 37833 ft | 457 kts | 271° |
| 2026-05-05 09:51 | 22.77795 | 46.97853 | 37834 ft | 457 kts | 271° |
| 2026-05-05 09:51 | 22.78333 | 46.90998 | 37835 ft | 456 kts | 271° |
| 2026-05-05 09:52 | 22.78864 | 46.84194 | 37830 ft | 456 kts | 271° |
| 2026-05-05 09:52 | 22.79395 | 46.77353 | 37834 ft | 456 kts | 271° |
| 2026-05-05 09:53 | 22.79922 | 46.70512 | 37830 ft | 455 kts | 271° |
| 2026-05-05 09:53 | 22.80447 | 46.63674 | 37836 ft | 455 kts | 271° |
| 2026-05-05 09:54 | 22.80965 | 46.56882 | 37837 ft | 455 kts | 271° |
| 2026-05-05 09:54 | 22.81484 | 46.50045 | 37838 ft | 455 kts | 271° |
| 2026-05-05 09:55 | 22.82000 | 46.43208 | 37863 ft | 455 kts | 271° |
| 2026-05-05 09:55 | 22.82512 | 46.36387 | 37856 ft | 454 kts | 271° |
| 2026-05-05 09:56 | 22.83013 | 46.29615 | 37854 ft | 453 kts | 271° |
| 2026-05-05 09:56 | 22.83515 | 46.22810 | 37839 ft | 453 kts | 271° |
| 2026-05-05 09:57 | 22.84012 | 46.16015 | 37834 ft | 452 kts | 271° |
| 2026-05-05 09:57 | 22.84507 | 46.09233 | 37831 ft | 452 kts | 271° |
| 2026-05-05 09:58 | 22.84995 | 46.02490 | 37828 ft | 452 kts | 271° |
| 2026-05-05 09:58 | 22.85484 | 45.95700 | 37825 ft | 452 kts | 271° |
| 2026-05-05 09:59 | 22.85971 | 45.88908 | 37840 ft | 452 kts | 271° |
| 2026-05-05 09:59 | 22.86454 | 45.82123 | 37835 ft | 451 kts | 271° |
| 2026-05-05 10:00 | 22.86930 | 45.75398 | 37824 ft | 451 kts | 270° |
| 2026-05-05 10:00 | 22.87406 | 45.68625 | 37822 ft | 450 kts | 270° |
| 2026-05-05 10:01 | 22.87879 | 45.61855 | 37817 ft | 450 kts | 270° |
| 2026-05-05 10:01 | 22.88349 | 45.55079 | 37807 ft | 450 kts | 270° |
| 2026-05-05 10:02 | 22.88814 | 45.48353 | 37812 ft | 451 kts | 270° |
| 2026-05-05 10:02 | 22.89279 | 45.41567 | 37812 ft | 451 kts | 270° |
| 2026-05-05 10:03 | 22.89742 | 45.34773 | 37835 ft | 452 kts | 270° |
| 2026-05-05 10:03 | 22.90200 | 45.28025 | 37837 ft | 452 kts | 270° |
| 2026-05-05 10:04 | 22.90657 | 45.21233 | 37839 ft | 451 kts | 270° |
| 2026-05-05 10:04 | 22.91111 | 45.14450 | 37834 ft | 451 kts | 270° |
| 2026-05-05 10:05 | 22.91562 | 45.07677 | 37829 ft | 450 kts | 270° |
| 2026-05-05 10:05 | 22.92008 | 45.00909 | 37831 ft | 450 kts | 270° |
| 2026-05-05 10:06 | 22.92446 | 44.94196 | 37819 ft | 450 kts | 270° |
| 2026-05-05 10:06 | 22.92887 | 44.87425 | 37823 ft | 450 kts | 270° |
| 2026-05-05 10:07 | 22.93324 | 44.80648 | 37828 ft | 451 kts | 270° |
| 2026-05-05 10:07 | 22.93760 | 44.73860 | 37837 ft | 451 kts | 270° |
| 2026-05-05 10:08 | 22.94515 | 44.67121 | 37846 ft | 456 kts | 277° |
| 2026-05-05 10:08 | 22.96231 | 44.60459 | 37855 ft | 462 kts | 284° |
| 2026-05-05 10:09 | 22.98287 | 44.53859 | 37855 ft | 461 kts | 283° |
| 2026-05-05 10:09 | 23.00318 | 44.47251 | 37861 ft | 461 kts | 283° |
| 2026-05-05 10:10 | 23.02337 | 44.40687 | 37874 ft | 461 kts | 283° |
| 2026-05-05 10:10 | 23.04367 | 44.34082 | 37870 ft | 461 kts | 283° |
| 2026-05-05 10:11 | 23.06390 | 44.27488 | 37869 ft | 460 kts | 283° |
| 2026-05-05 10:11 | 23.08406 | 44.20909 | 37870 ft | 459 kts | 283° |
| 2026-05-05 10:12 | 23.10404 | 44.14378 | 37867 ft | 458 kts | 283° |
| 2026-05-05 10:12 | 23.12409 | 44.07813 | 37860 ft | 458 kts | 283° |
| 2026-05-05 10:13 | 23.14408 | 44.01253 | 37879 ft | 457 kts | 283° |
| 2026-05-05 10:13 | 23.16388 | 43.94749 | 37881 ft | 456 kts | 283° |
| 2026-05-05 10:14 | 23.18372 | 43.88217 | 37877 ft | 455 kts | 283° |
| 2026-05-05 10:14 | 23.20352 | 43.81692 | 37890 ft | 454 kts | 283° |
| 2026-05-05 10:15 | 23.22326 | 43.75174 | 37879 ft | 453 kts | 283° |
| 2026-05-05 10:15 | 23.24294 | 43.68663 | 37889 ft | 453 kts | 283° |
| 2026-05-05 10:16 | 23.26243 | 43.62206 | 37907 ft | 453 kts | 282° |
| 2026-05-05 10:16 | 23.28204 | 43.55705 | 37919 ft | 452 kts | 282° |
| 2026-05-05 10:17 | 23.30154 | 43.49220 | 37915 ft | 451 kts | 282° |
| 2026-05-05 10:17 | 23.32099 | 43.42745 | 37927 ft | 450 kts | 282° |
| 2026-05-05 10:18 | 23.34023 | 43.36331 | 37930 ft | 449 kts | 282° |
| 2026-05-05 10:18 | 23.35954 | 43.29880 | 37925 ft | 448 kts | 282° |
| 2026-05-05 10:19 | 23.37879 | 43.23439 | 37922 ft | 447 kts | 282° |
| 2026-05-05 10:19 | 23.39798 | 43.17009 | 37935 ft | 446 kts | 282° |
| 2026-05-05 10:20 | 23.41697 | 43.10632 | 37943 ft | 445 kts | 282° |
| 2026-05-05 10:20 | 23.43601 | 43.04214 | 37946 ft | 445 kts | 282° |
| 2026-05-05 10:21 | 23.45501 | 42.97799 | 37942 ft | 445 kts | 282° |
| 2026-05-05 10:21 | 23.47394 | 42.91397 | 37941 ft | 444 kts | 282° |
| 2026-05-05 10:22 | 23.49273 | 42.85034 | 37939 ft | 444 kts | 282° |
| 2026-05-05 10:22 | 23.51160 | 42.78629 | 37946 ft | 444 kts | 282° |
| 2026-05-05 10:23 | 23.53046 | 42.72225 | 37944 ft | 444 kts | 282° |
| 2026-05-05 10:23 | 23.54933 | 42.65819 | 37940 ft | 444 kts | 282° |
| 2026-05-05 10:24 | 23.56806 | 42.59451 | 37933 ft | 444 kts | 281° |
| 2026-05-05 10:24 | 23.58688 | 42.53040 | 37933 ft | 444 kts | 281° |
| 2026-05-05 10:25 | 23.60566 | 42.46632 | 37945 ft | 443 kts | 281° |
| 2026-05-05 10:25 | 23.62437 | 42.40235 | 37962 ft | 443 kts | 281° |
| 2026-05-05 10:26 | 23.64294 | 42.33876 | 37934 ft | 443 kts | 281° |
| 2026-05-05 10:26 | 23.66159 | 42.27482 | 37936 ft | 442 kts | 281° |
| 2026-05-05 10:27 | 23.68013 | 42.21092 | 37919 ft | 442 kts | 281° |
| 2026-05-05 10:27 | 23.69862 | 42.14703 | 37928 ft | 441 kts | 281° |
| 2026-05-05 10:28 | 23.71696 | 42.08358 | 37926 ft | 441 kts | 281° |
| 2026-05-05 10:28 | 23.73539 | 42.01972 | 37921 ft | 441 kts | 281° |
| 2026-05-05 10:29 | 23.75379 | 41.95595 | 37923 ft | 441 kts | 281° |
| 2026-05-05 10:29 | 23.77225 | 41.89210 | 37923 ft | 441 kts | 281° |
| 2026-05-05 10:30 | 23.79055 | 41.82868 | 37918 ft | 441 kts | 281° |
| 2026-05-05 10:30 | 23.80894 | 41.76484 | 37934 ft | 441 kts | 281° |
| 2026-05-05 10:31 | 23.82729 | 41.70095 | 37922 ft | 441 kts | 281° |
| 2026-05-05 10:31 | 23.84558 | 41.63713 | 37922 ft | 441 kts | 281° |
| 2026-05-05 10:32 | 23.86386 | 41.57325 | 37914 ft | 440 kts | 281° |
| 2026-05-05 10:32 | 23.88195 | 41.50977 | 37923 ft | 440 kts | 280° |
| 2026-05-05 10:33 | 23.90007 | 41.44592 | 37921 ft | 440 kts | 280° |
| 2026-05-05 10:33 | 23.91816 | 41.38205 | 37915 ft | 440 kts | 280° |
| 2026-05-05 10:34 | 23.93625 | 41.31821 | 37920 ft | 440 kts | 280° |
| 2026-05-05 10:34 | 23.95423 | 41.25483 | 37910 ft | 439 kts | 280° |
| 2026-05-05 10:35 | 23.97227 | 41.19110 | 37919 ft | 438 kts | 280° |
| 2026-05-05 10:35 | 23.99025 | 41.12745 | 37946 ft | 438 kts | 280° |
| 2026-05-05 10:36 | 24.00818 | 41.06382 | 37918 ft | 437 kts | 280° |
| 2026-05-05 10:36 | 24.02595 | 41.00073 | 37911 ft | 437 kts | 280° |
| 2026-05-05 10:37 | 24.04378 | 40.93726 | 37906 ft | 436 kts | 280° |
| 2026-05-05 10:37 | 24.06155 | 40.87392 | 37930 ft | 435 kts | 280° |
| 2026-05-05 10:38 | 24.07927 | 40.81067 | 37924 ft | 434 kts | 280° |
| 2026-05-05 10:38 | 24.09679 | 40.74801 | 37911 ft | 433 kts | 280° |
| 2026-05-05 10:39 | 24.11436 | 40.68507 | 37899 ft | 432 kts | 280° |
| 2026-05-05 10:39 | 24.13186 | 40.62226 | 37899 ft | 431 kts | 280° |
| 2026-05-05 10:40 | 24.14931 | 40.55951 | 37897 ft | 430 kts | 280° |
| 2026-05-05 10:40 | 24.17021 | 40.49819 | 37894 ft | 438 kts | 287° |
| 2026-05-05 10:41 | 24.19841 | 40.43866 | 37906 ft | 441 kts | 290° |
| 2026-05-05 10:41 | 24.22689 | 40.37921 | 37910 ft | 440 kts | 290° |
| 2026-05-05 10:42 | 24.26935 | 40.29040 | 37913 ft | 441 kts | 290° |
| 2026-05-05 10:43 | 24.29780 | 40.23088 | 37925 ft | 441 kts | 290° |
| 2026-05-05 10:43 | 24.32621 | 40.17139 | 37933 ft | 440 kts | 289° |
| 2026-05-05 10:44 | 24.35457 | 40.11192 | 37938 ft | 440 kts | 289° |
| 2026-05-05 10:44 | 24.38269 | 40.05288 | 37926 ft | 439 kts | 289° |
| 2026-05-05 10:45 | 24.41092 | 39.99352 | 37938 ft | 439 kts | 289° |
| 2026-05-05 10:45 | 24.43914 | 39.93411 | 37932 ft | 439 kts | 289° |
| 2026-05-05 10:46 | 24.46732 | 39.87472 | 37931 ft | 438 kts | 289° |
| 2026-05-05 10:46 | 24.49526 | 39.81576 | 37936 ft | 438 kts | 289° |
| 2026-05-05 10:47 | 24.52397 | 39.75660 | 37945 ft | 442 kts | 293° |
| 2026-05-05 10:47 | 24.56163 | 39.70201 | 37942 ft | 456 kts | 304° |
| 2026-05-05 10:48 | 24.61000 | 39.65530 | 37946 ft | 471 kts | 315° |
| 2026-05-05 10:48 | 24.66284 | 39.61348 | 37946 ft | 471 kts | 314° |
| 2026-05-05 10:49 | 24.71584 | 39.57103 | 37965 ft | 471 kts | 314° |
| 2026-05-05 10:49 | 24.76883 | 39.52860 | 37956 ft | 471 kts | 314° |
| 2026-05-05 10:50 | 24.82182 | 39.48618 | 37945 ft | 471 kts | 314° |
| 2026-05-05 10:50 | 24.87478 | 39.44372 | 37968 ft | 471 kts | 314° |
| 2026-05-05 10:51 | 24.92731 | 39.40157 | 37948 ft | 470 kts | 314° |
| 2026-05-05 10:51 | 24.98007 | 39.35920 | 37939 ft | 469 kts | 314° |
| 2026-05-05 10:52 | 25.03272 | 39.31685 | 37960 ft | 468 kts | 314° |
| 2026-05-05 10:52 | 25.08531 | 39.27452 | 37955 ft | 468 kts | 314° |
| 2026-05-05 10:53 | 25.13749 | 39.23246 | 37955 ft | 467 kts | 314° |
| 2026-05-05 10:53 | 25.18889 | 39.18920 | 37986 ft | 460 kts | 308° |
| 2026-05-05 10:54 | 25.23301 | 39.13938 | 37949 ft | 448 kts | 300° |
| 2026-05-05 10:54 | 25.26891 | 39.08412 | 37961 ft | 439 kts | 294° |
| 2026-05-05 10:55 | 25.30214 | 39.02734 | 37952 ft | 440 kts | 294° |
| 2026-05-05 10:55 | 25.33524 | 38.97101 | 37958 ft | 440 kts | 294° |
| 2026-05-05 10:56 | 25.36845 | 38.91420 | 37953 ft | 440 kts | 294° |
| 2026-05-05 10:56 | 25.40165 | 38.85727 | 37925 ft | 441 kts | 294° |
| 2026-05-05 10:57 | 25.43466 | 38.80062 | 37908 ft | 441 kts | 294° |
| 2026-05-05 10:57 | 25.46787 | 38.74355 | 37921 ft | 442 kts | 294° |
| 2026-05-05 10:58 | 25.50115 | 38.68628 | 37936 ft | 442 kts | 294° |
| 2026-05-05 10:58 | 25.53445 | 38.62892 | 37910 ft | 443 kts | 294° |
| 2026-05-05 10:59 | 25.56780 | 38.57140 | 37911 ft | 444 kts | 294° |
| 2026-05-05 10:59 | 25.60095 | 38.51415 | 37930 ft | 445 kts | 294° |
| 2026-05-05 11:00 | 25.63432 | 38.45646 | 37924 ft | 445 kts | 294° |
| 2026-05-05 11:00 | 25.66772 | 38.39864 | 37934 ft | 445 kts | 294° |
| 2026-05-05 11:01 | 25.70112 | 38.34075 | 37944 ft | 446 kts | 294° |
| 2026-05-05 11:01 | 25.73447 | 38.28287 | 37933 ft | 445 kts | 294° |
| 2026-05-05 11:02 | 25.76752 | 38.22545 | 37926 ft | 444 kts | 294° |
| 2026-05-05 11:02 | 25.80071 | 38.16771 | 37936 ft | 443 kts | 294° |
| 2026-05-05 11:03 | 25.83375 | 38.11016 | 37933 ft | 441 kts | 293° |
| 2026-05-05 11:03 | 25.86661 | 38.05286 | 37911 ft | 440 kts | 294° |
| 2026-05-05 11:04 | 25.89919 | 37.99594 | 37922 ft | 440 kts | 293° |
| 2026-05-05 11:04 | 25.93203 | 37.93847 | 37951 ft | 441 kts | 293° |
| 2026-05-05 11:05 | 25.96486 | 37.88097 | 37949 ft | 440 kts | 293° |
| 2026-05-05 11:05 | 25.99278 | 37.82159 | 37941 ft | 428 kts | 284° |
| 2026-05-05 11:06 | 26.01066 | 37.75982 | 37947 ft | 419 kts | 276° |
| 2026-05-05 11:06 | 26.02025 | 37.69643 | 37960 ft | 415 kts | 272° |
| 2026-05-05 11:07 | 26.02896 | 37.63293 | 37946 ft | 415 kts | 273° |
| 2026-05-05 11:07 | 26.03763 | 37.56955 | 37950 ft | 415 kts | 272° |
| 2026-05-05 11:08 | 26.04615 | 37.50651 | 37950 ft | 415 kts | 272° |
| 2026-05-05 11:08 | 26.05467 | 37.44291 | 37952 ft | 417 kts | 272° |
| 2026-05-05 11:09 | 26.06322 | 37.37897 | 37957 ft | 419 kts | 272° |
| 2026-05-05 11:09 | 26.07177 | 37.31487 | 37957 ft | 419 kts | 272° |
| 2026-05-05 11:10 | 26.08023 | 37.25122 | 37954 ft | 418 kts | 272° |
| 2026-05-05 11:10 | 26.08870 | 37.18717 | 37937 ft | 418 kts | 272° |
| 2026-05-05 11:11 | 26.09715 | 37.12321 | 37932 ft | 418 kts | 272° |
| 2026-05-05 11:11 | 26.10556 | 37.05923 | 37934 ft | 418 kts | 272° |
| 2026-05-05 11:12 | 26.11389 | 36.99567 | 37949 ft | 418 kts | 272° |
| 2026-05-05 11:12 | 26.12225 | 36.93161 | 37939 ft | 418 kts | 272° |
| 2026-05-05 11:13 | 26.13058 | 36.86756 | 37943 ft | 418 kts | 272° |
| 2026-05-05 11:13 | 26.13889 | 36.80352 | 37948 ft | 418 kts | 272° |
| 2026-05-05 11:14 | 26.14710 | 36.73993 | 37975 ft | 418 kts | 272° |
| 2026-05-05 11:14 | 26.15536 | 36.67573 | 37949 ft | 419 kts | 272° |
| 2026-05-05 11:15 | 26.16361 | 36.61145 | 37969 ft | 420 kts | 272° |
| 2026-05-05 11:15 | 26.17260 | 36.54716 | 37939 ft | 423 kts | 277° |
| 2026-05-05 11:16 | 26.19351 | 36.48542 | 37938 ft | 438 kts | 291° |
| 2026-05-05 11:16 | 26.22996 | 36.42957 | 37939 ft | 456 kts | 305° |
| 2026-05-05 11:17 | 26.27438 | 36.37896 | 37939 ft | 457 kts | 304° |
| 2026-05-05 11:17 | 26.31857 | 36.32794 | 37948 ft | 458 kts | 304° |
| 2026-05-05 11:18 | 26.36252 | 36.27717 | 37952 ft | 458 kts | 304° |
| 2026-05-05 11:18 | 26.40676 | 36.22604 | 37957 ft | 458 kts | 305° |
| 2026-05-05 11:19 | 26.45096 | 36.17490 | 37963 ft | 458 kts | 305° |
| 2026-05-05 11:19 | 26.49521 | 36.12367 | 37961 ft | 458 kts | 305° |
| 2026-05-05 11:20 | 26.53910 | 36.07278 | 37961 ft | 458 kts | 305° |
| 2026-05-05 11:20 | 26.58325 | 36.02152 | 37961 ft | 458 kts | 305° |
| 2026-05-05 11:21 | 26.62731 | 35.97031 | 37959 ft | 457 kts | 304° |
| 2026-05-05 11:21 | 26.67138 | 35.91902 | 37975 ft | 458 kts | 305° |
| 2026-05-05 11:22 | 26.71544 | 35.86769 | 37979 ft | 457 kts | 305° |
| 2026-05-05 11:22 | 26.75913 | 35.81674 | 37977 ft | 456 kts | 304° |
| 2026-05-05 11:23 | 26.80303 | 35.76547 | 37957 ft | 456 kts | 304° |
| 2026-05-05 11:23 | 26.84687 | 35.71421 | 37964 ft | 455 kts | 305° |
| 2026-05-05 11:24 | 26.89060 | 35.66303 | 37961 ft | 455 kts | 305° |
| 2026-05-05 11:24 | 26.93404 | 35.61213 | 37962 ft | 455 kts | 305° |
| 2026-05-05 11:25 | 26.97773 | 35.56088 | 37955 ft | 454 kts | 305° |
| 2026-05-05 11:25 | 27.02138 | 35.50960 | 37957 ft | 454 kts | 305° |
| 2026-05-05 11:26 | 27.06502 | 35.45825 | 37990 ft | 455 kts | 305° |
| 2026-05-05 11:26 | 27.10835 | 35.40727 | 37988 ft | 454 kts | 305° |
| 2026-05-05 11:27 | 27.15184 | 35.35601 | 37973 ft | 453 kts | 305° |
| 2026-05-05 11:27 | 27.19520 | 35.30483 | 37964 ft | 452 kts | 305° |
| 2026-05-05 11:28 | 27.23840 | 35.25378 | 37962 ft | 451 kts | 305° |
| 2026-05-05 11:28 | 27.28127 | 35.20305 | 37956 ft | 450 kts | 305° |
| 2026-05-05 11:29 | 27.32438 | 35.15198 | 37957 ft | 450 kts | 305° |
| 2026-05-05 11:29 | 27.36745 | 35.10090 | 37953 ft | 450 kts | 305° |
| 2026-05-05 11:30 | 27.41051 | 35.04977 | 37999 ft | 450 kts | 305° |
| 2026-05-05 11:30 | 27.45333 | 34.99886 | 37973 ft | 451 kts | 305° |
| 2026-05-05 11:31 | 27.49640 | 34.94759 | 37968 ft | 450 kts | 305° |
| 2026-05-05 11:31 | 27.54125 | 34.89798 | 37966 ft | 454 kts | 309° |
| 2026-05-05 11:32 | 27.58737 | 34.84942 | 37966 ft | 453 kts | 308° |
| 2026-05-05 11:32 | 27.63338 | 34.80077 | 37959 ft | 453 kts | 308° |
| 2026-05-05 11:33 | 27.67904 | 34.75243 | 37961 ft | 453 kts | 308° |
| 2026-05-05 11:33 | 27.72498 | 34.70374 | 37974 ft | 453 kts | 309° |
| 2026-05-05 11:34 | 27.77085 | 34.65508 | 38005 ft | 452 kts | 309° |
| 2026-05-05 11:34 | 27.81627 | 34.60684 | 37981 ft | 451 kts | 308° |
| 2026-05-05 11:35 | 27.86187 | 34.55834 | 37971 ft | 449 kts | 308° |
| 2026-05-05 11:35 | 27.90733 | 34.50993 | 37966 ft | 448 kts | 308° |
| 2026-05-05 11:36 | 27.95267 | 34.46159 | 37959 ft | 448 kts | 309° |
| 2026-05-05 11:36 | 27.99716 | 34.41314 | 37951 ft | 444 kts | 305° |
| 2026-05-05 11:37 | 28.03648 | 34.36004 | 37946 ft | 439 kts | 302° |
| 2026-05-05 11:37 | 28.07521 | 34.30657 | 37953 ft | 440 kts | 302° |
| 2026-05-05 11:38 | 28.11403 | 34.25295 | 37960 ft | 441 kts | 302° |
| 2026-05-05 11:38 | 28.15286 | 34.19913 | 38000 ft | 442 kts | 302° |
| 2026-05-05 11:39 | 28.19138 | 34.14564 | 37997 ft | 440 kts | 302° |
| 2026-05-05 11:39 | 28.23009 | 34.09186 | 37992 ft | 440 kts | 302° |
| 2026-05-05 11:40 | 28.26876 | 34.03804 | 37999 ft | 439 kts | 302° |
| 2026-05-05 11:40 | 28.30691 | 33.98487 | 38000 ft | 435 kts | 302° |
| 2026-05-05 11:41 | 28.34509 | 33.93170 | 37981 ft | 435 kts | 302° |
| 2026-05-05 11:41 | 28.38326 | 33.87833 | 37999 ft | 436 kts | 302° |
| 2026-05-05 11:42 | 28.42156 | 33.82472 | 38013 ft | 438 kts | 302° |
| 2026-05-05 11:42 | 28.45994 | 33.77095 | 38021 ft | 438 kts | 302° |
| 2026-05-05 11:43 | 28.49806 | 33.71753 | 38016 ft | 437 kts | 302° |
| 2026-05-05 11:43 | 28.53634 | 33.66381 | 38081 ft | 437 kts | 302° |
| 2026-05-05 11:44 | 28.57452 | 33.61027 | 38036 ft | 435 kts | 302° |
| 2026-05-05 11:44 | 28.60612 | 33.56592 | 38034 ft | 434 kts | 302° |
| 2026-05-05 11:45 | 28.65019 | 33.50396 | 38030 ft | 433 kts | 302° |
| 2026-05-05 11:45 | 28.68794 | 33.45068 | 38034 ft | 432 kts | 302° |
| 2026-05-05 11:46 | 28.72562 | 33.39746 | 38022 ft | 431 kts | 302° |
| 2026-05-05 11:46 | 28.75687 | 33.35327 | 38026 ft | 430 kts | 302° |
| 2026-05-05 11:47 | 28.80045 | 33.29157 | 38014 ft | 430 kts | 302° |
| 2026-05-05 11:47 | 28.83793 | 33.23843 | 38024 ft | 430 kts | 302° |
| 2026-05-05 11:48 | 28.88782 | 33.16760 | 38036 ft | 431 kts | 302° |
| 2026-05-05 11:48 | 28.92537 | 33.11420 | 38049 ft | 432 kts | 302° |
| 2026-05-05 11:49 | 28.96903 | 33.05204 | 38052 ft | 432 kts | 302° |
| 2026-05-05 11:49 | 29.00028 | 33.00749 | 38061 ft | 432 kts | 302° |
| 2026-05-05 11:50 | 29.03784 | 32.95388 | 38063 ft | 432 kts | 302° |
| 2026-05-05 11:50 | 29.07540 | 32.90020 | 38065 ft | 432 kts | 302° |
| 2026-05-05 11:51 | 29.11293 | 32.84649 | 38061 ft | 432 kts | 302° |
| 2026-05-05 11:51 | 29.15020 | 32.79309 | 38064 ft | 432 kts | 302° |
| 2026-05-05 11:52 | 29.18768 | 32.73931 | 38062 ft | 432 kts | 302° |
| 2026-05-05 11:52 | 29.22509 | 32.68556 | 38060 ft | 432 kts | 302° |
| 2026-05-05 11:53 | 29.26250 | 32.63175 | 38060 ft | 432 kts | 302° |
| 2026-05-05 11:53 | 29.29985 | 32.57787 | 38054 ft | 432 kts | 302° |
| 2026-05-05 11:54 | 29.33673 | 32.52414 | 38075 ft | 432 kts | 302° |
| 2026-05-05 11:54 | 29.37389 | 32.46990 | 38073 ft | 433 kts | 302° |
| 2026-05-05 11:55 | 29.41109 | 32.41561 | 38071 ft | 433 kts | 302° |
| 2026-05-05 11:55 | 29.44824 | 32.36134 | 38067 ft | 432 kts | 302° |
| 2026-05-05 11:56 | 29.48501 | 32.30754 | 38068 ft | 431 kts | 302° |
| 2026-05-05 11:56 | 29.52200 | 32.25336 | 38059 ft | 431 kts | 302° |
| 2026-05-05 11:57 | 29.55893 | 32.19917 | 38057 ft | 430 kts | 302° |
| 2026-05-05 11:57 | 29.59578 | 32.14505 | 38062 ft | 430 kts | 302° |
| 2026-05-05 11:58 | 29.63234 | 32.09127 | 38056 ft | 430 kts | 302° |
| 2026-05-05 11:58 | 29.66911 | 32.03712 | 38064 ft | 429 kts | 302° |
| 2026-05-05 11:59 | 29.70585 | 31.98293 | 38063 ft | 429 kts | 302° |
| 2026-05-05 11:59 | 29.74256 | 31.92872 | 38066 ft | 429 kts | 302° |
| 2026-05-05 12:00 | 29.77896 | 31.87491 | 38076 ft | 429 kts | 302° |
| 2026-05-05 12:00 | 29.81485 | 31.82018 | 38076 ft | 427 kts | 301° |
| 2026-05-05 12:01 | 29.84990 | 31.76499 | 38073 ft | 427 kts | 301° |
| 2026-05-05 12:01 | 29.88506 | 31.70993 | 38066 ft | 426 kts | 301° |
| 2026-05-05 12:02 | 29.92001 | 31.65532 | 38064 ft | 426 kts | 301° |
| 2026-05-05 12:02 | 29.95542 | 31.60056 | 38063 ft | 426 kts | 301° |
| 2026-05-05 12:03 | 29.99087 | 31.54583 | 38066 ft | 426 kts | 301° |
| 2026-05-05 12:03 | 30.02622 | 31.49108 | 38062 ft | 426 kts | 301° |
| 2026-05-05 12:04 | 30.06139 | 31.43652 | 38069 ft | 427 kts | 301° |
| 2026-05-05 12:04 | 30.09882 | 31.38299 | 38071 ft | 432 kts | 307° |
| 2026-05-05 12:05 | 30.14260 | 31.33478 | 38074 ft | 436 kts | 310° |
| 2026-05-05 12:05 | 30.18701 | 31.28703 | 38079 ft | 436 kts | 310° |
| 2026-05-05 12:06 | 30.23140 | 31.23921 | 38088 ft | 436 kts | 310° |
| 2026-05-05 12:06 | 30.27543 | 31.19180 | 38066 ft | 436 kts | 311° |
| 2026-05-05 12:07 | 30.31974 | 31.14405 | 38064 ft | 435 kts | 311° |
| 2026-05-05 12:07 | 30.36397 | 31.09633 | 38060 ft | 434 kts | 311° |
| 2026-05-05 12:08 | 30.40815 | 31.04859 | 38061 ft | 434 kts | 310° |
| 2026-05-05 12:08 | 30.45200 | 31.00115 | 38062 ft | 434 kts | 310° |
| 2026-05-05 12:09 | 30.49607 | 30.95341 | 38117 ft | 433 kts | 311° |
| 2026-05-05 12:09 | 30.54000 | 30.90576 | 38080 ft | 432 kts | 311° |
| 2026-05-05 12:10 | 30.58381 | 30.85820 | 38070 ft | 430 kts | 311° |
| 2026-05-05 12:10 | 30.62716 | 30.81105 | 38058 ft | 429 kts | 311° |
| 2026-05-05 12:11 | 30.67068 | 30.76367 | 38052 ft | 428 kts | 311° |
| 2026-05-05 12:11 | 30.71410 | 30.71632 | 38054 ft | 428 kts | 311° |
| 2026-05-05 12:12 | 30.75747 | 30.66897 | 38058 ft | 428 kts | 311° |
| 2026-05-05 12:12 | 30.80049 | 30.62194 | 38054 ft | 428 kts | 311° |
| 2026-05-05 12:13 | 30.84385 | 30.57448 | 38074 ft | 429 kts | 311° |
| 2026-05-05 12:13 | 30.88726 | 30.52691 | 38078 ft | 429 kts | 311° |
| 2026-05-05 12:14 | 30.93065 | 30.47929 | 38078 ft | 429 kts | 311° |
| 2026-05-05 12:14 | 30.97373 | 30.43196 | 38083 ft | 428 kts | 311° |
| 2026-05-05 12:15 | 31.01706 | 30.38428 | 38086 ft | 428 kts | 311° |
| 2026-05-05 12:15 | 31.05928 | 30.33555 | 38096 ft | 424 kts | 305° |
| 2026-05-05 12:16 | 31.09228 | 30.27989 | 38103 ft | 418 kts | 295° |
| 2026-05-05 12:16 | 31.11480 | 30.21795 | 38092 ft | 414 kts | 285° |
| 2026-05-05 12:17 | 31.13216 | 30.15386 | 38096 ft | 414 kts | 286° |
| 2026-05-05 12:17 | 31.14977 | 30.08977 | 38100 ft | 415 kts | 286° |
| 2026-05-05 12:18 | 31.16726 | 30.02559 | 38106 ft | 415 kts | 286° |
| 2026-05-05 12:18 | 31.18820 | 29.96331 | 38130 ft | 417 kts | 293° |
| 2026-05-05 12:19 | 31.21702 | 29.90436 | 38131 ft | 420 kts | 300° |
| 2026-05-05 12:19 | 31.25139 | 29.84898 | 38128 ft | 421 kts | 302° |
| 2026-05-05 12:20 | 31.28585 | 29.79359 | 38119 ft | 422 kts | 302° |
| 2026-05-05 12:20 | 31.32016 | 29.73843 | 38124 ft | 422 kts | 302° |
| 2026-05-05 12:21 | 31.35472 | 29.68289 | 38115 ft | 422 kts | 302° |
| 2026-05-05 12:21 | 31.38921 | 29.62737 | 38114 ft | 422 kts | 302° |
| 2026-05-05 12:22 | 31.42371 | 29.57176 | 38113 ft | 422 kts | 302° |
| 2026-05-05 12:22 | 31.45796 | 29.51647 | 38107 ft | 422 kts | 302° |
| 2026-05-05 12:23 | 31.49241 | 29.46078 | 38109 ft | 422 kts | 302° |
| 2026-05-05 12:23 | 31.52685 | 29.40503 | 38110 ft | 422 kts | 302° |
| 2026-05-05 12:24 | 31.56128 | 29.34922 | 38112 ft | 422 kts | 302° |
| 2026-05-05 12:24 | 31.59546 | 29.29373 | 38108 ft | 422 kts | 302° |
| 2026-05-05 12:25 | 31.62973 | 29.23784 | 38112 ft | 422 kts | 302° |
| 2026-05-05 12:25 | 31.66400 | 29.18185 | 38110 ft | 422 kts | 302° |
| 2026-05-05 12:26 | 31.69829 | 29.12576 | 38104 ft | 423 kts | 303° |
| 2026-05-05 12:26 | 31.73577 | 29.07215 | 38110 ft | 427 kts | 310° |
| 2026-05-05 12:27 | 31.77961 | 29.02549 | 38109 ft | 431 kts | 316° |
| 2026-05-05 12:27 | 31.82598 | 28.98095 | 38104 ft | 430 kts | 316° |
| 2026-05-05 12:28 | 31.87220 | 28.93623 | 38109 ft | 430 kts | 316° |
| 2026-05-05 12:28 | 31.91845 | 28.89155 | 38109 ft | 430 kts | 316° |
| 2026-05-05 12:29 | 31.96438 | 28.84716 | 38106 ft | 430 kts | 316° |
| 2026-05-05 12:29 | 32.01059 | 28.80244 | 38152 ft | 430 kts | 316° |
| 2026-05-05 12:30 | 32.05678 | 28.75765 | 38104 ft | 430 kts | 316° |
| 2026-05-05 12:30 | 32.10302 | 28.71279 | 38108 ft | 430 kts | 316° |
| 2026-05-05 12:31 | 32.14926 | 28.66786 | 38102 ft | 431 kts | 316° |
| 2026-05-05 12:31 | 32.19516 | 28.62319 | 38126 ft | 430 kts | 316° |
| 2026-05-05 12:32 | 32.24127 | 28.57827 | 38104 ft | 430 kts | 316° |
| 2026-05-05 12:32 | 32.28737 | 28.53328 | 38109 ft | 430 kts | 316° |
| 2026-05-05 12:33 | 32.33343 | 28.48828 | 38124 ft | 430 kts | 316° |
| 2026-05-05 12:33 | 32.37934 | 28.44334 | 38089 ft | 432 kts | 316° |
| 2026-05-05 12:34 | 32.42564 | 28.39799 | 38096 ft | 432 kts | 316° |
| 2026-05-05 12:34 | 32.47199 | 28.35252 | 38103 ft | 433 kts | 316° |
| 2026-05-05 12:35 | 32.51837 | 28.30695 | 38107 ft | 433 kts | 316° |
| 2026-05-05 12:35 | 32.56444 | 28.26163 | 38110 ft | 434 kts | 316° |
| 2026-05-05 12:36 | 32.61085 | 28.21591 | 38120 ft | 434 kts | 316° |
| 2026-05-05 12:36 | 32.65725 | 28.17013 | 38112 ft | 434 kts | 316° |
| 2026-05-05 12:37 | 32.70356 | 28.12438 | 38107 ft | 433 kts | 316° |
| 2026-05-05 12:37 | 32.74988 | 28.07856 | 38105 ft | 433 kts | 316° |
| 2026-05-05 12:38 | 32.79584 | 28.03303 | 38106 ft | 433 kts | 316° |
| 2026-05-05 12:38 | 32.84205 | 27.98718 | 38106 ft | 433 kts | 316° |
| 2026-05-05 12:39 | 32.88824 | 27.94130 | 38101 ft | 432 kts | 316° |
| 2026-05-05 12:39 | 32.93436 | 27.89541 | 38101 ft | 432 kts | 316° |
| 2026-05-05 12:40 | 32.98026 | 27.84966 | 38087 ft | 434 kts | 317° |
| 2026-05-05 12:40 | 33.02657 | 27.80346 | 38091 ft | 434 kts | 317° |
| 2026-05-05 12:41 | 33.07293 | 27.75716 | 38098 ft | 435 kts | 317° |
| 2026-05-05 12:41 | 33.11932 | 27.71074 | 38101 ft | 436 kts | 317° |
| 2026-05-05 12:42 | 33.16540 | 27.66457 | 38104 ft | 436 kts | 317° |
| 2026-05-05 12:42 | 33.21188 | 27.61794 | 38106 ft | 436 kts | 317° |
| 2026-05-05 12:43 | 33.25837 | 27.57123 | 38111 ft | 437 kts | 317° |
| 2026-05-05 12:43 | 33.30490 | 27.52440 | 38111 ft | 438 kts | 317° |
| 2026-05-05 12:44 | 33.35147 | 27.47747 | 38105 ft | 437 kts | 317° |
| 2026-05-05 12:44 | 33.39763 | 27.43089 | 38103 ft | 437 kts | 317° |
| 2026-05-05 12:45 | 33.44411 | 27.38391 | 38107 ft | 437 kts | 317° |
| 2026-05-05 12:45 | 33.49055 | 27.33691 | 38107 ft | 437 kts | 317° |
| 2026-05-05 12:46 | 33.53665 | 27.29019 | 38097 ft | 437 kts | 317° |
| 2026-05-05 12:46 | 33.58303 | 27.24312 | 38124 ft | 437 kts | 317° |
| 2026-05-05 12:47 | 33.62933 | 27.19604 | 38119 ft | 436 kts | 317° |
| 2026-05-05 12:47 | 33.67562 | 27.14892 | 38091 ft | 436 kts | 317° |
| 2026-05-05 12:48 | 33.72185 | 27.10178 | 38081 ft | 436 kts | 317° |
| 2026-05-05 12:48 | 33.76773 | 27.05495 | 38086 ft | 436 kts | 317° |
| 2026-05-05 12:49 | 33.81389 | 27.00776 | 38095 ft | 435 kts | 317° |
| 2026-05-05 12:49 | 33.86002 | 26.96051 | 38110 ft | 435 kts | 317° |
| 2026-05-05 12:50 | 33.90584 | 26.91352 | 38108 ft | 435 kts | 317° |
| 2026-05-05 12:50 | 33.95186 | 26.86628 | 38096 ft | 435 kts | 317° |
| 2026-05-05 12:51 | 33.99786 | 26.81900 | 38095 ft | 434 kts | 317° |
| 2026-05-05 12:51 | 34.04517 | 26.77362 | 38094 ft | 435 kts | 321° |
| 2026-05-05 12:52 | 34.09350 | 26.72971 | 38093 ft | 435 kts | 320° |
| 2026-05-05 12:52 | 34.14120 | 26.68572 | 38090 ft | 434 kts | 320° |
| 2026-05-05 12:53 | 34.18910 | 26.64117 | 38112 ft | 435 kts | 320° |
| 2026-05-05 12:53 | 34.23698 | 26.59654 | 38094 ft | 434 kts | 320° |
| 2026-05-05 12:54 | 34.30837 | 26.52988 | 38091 ft | 434 kts | 320° |
| 2026-05-05 12:55 | 34.35608 | 26.48526 | 38089 ft | 433 kts | 320° |
| 2026-05-05 12:55 | 34.40369 | 26.44066 | 38089 ft | 433 kts | 320° |
| 2026-05-05 12:56 | 34.45131 | 26.39599 | 38085 ft | 433 kts | 320° |
| 2026-05-05 12:56 | 34.49890 | 26.35127 | 38114 ft | 433 kts | 320° |
| 2026-05-05 12:57 | 34.54610 | 26.30686 | 38106 ft | 432 kts | 320° |
| 2026-05-05 12:57 | 34.59349 | 26.26221 | 38097 ft | 431 kts | 320° |
| 2026-05-05 12:58 | 34.64077 | 26.21759 | 38077 ft | 430 kts | 320° |
| 2026-05-05 12:58 | 34.68770 | 26.17323 | 38077 ft | 430 kts | 320° |
| 2026-05-05 12:59 | 34.73494 | 26.12852 | 38081 ft | 430 kts | 320° |
| 2026-05-05 12:59 | 34.78214 | 26.08378 | 38083 ft | 431 kts | 320° |
| 2026-05-05 13:00 | 34.85307 | 26.01642 | 38087 ft | 431 kts | 320° |
| 2026-05-05 13:01 | 34.94716 | 25.92683 | 38089 ft | 431 kts | 320° |
| 2026-05-05 13:01 | 34.99436 | 25.88179 | 38090 ft | 431 kts | 320° |
| 2026-05-05 13:02 | 35.04156 | 25.83667 | 38093 ft | 431 kts | 321° |
| 2026-05-05 13:02 | 35.08847 | 25.79178 | 38122 ft | 431 kts | 321° |
| 2026-05-05 13:03 | 35.13563 | 25.74645 | 38112 ft | 431 kts | 320° |
| 2026-05-05 13:03 | 35.18263 | 25.70103 | 38117 ft | 430 kts | 320° |
| 2026-05-05 13:04 | 35.22952 | 25.65572 | 38103 ft | 429 kts | 320° |
| 2026-05-05 13:04 | 35.27640 | 25.61061 | 38095 ft | 429 kts | 321° |
| 2026-05-05 13:05 | 35.32302 | 25.56570 | 38101 ft | 429 kts | 320° |
| 2026-05-05 13:05 | 35.36995 | 25.52039 | 38101 ft | 429 kts | 320° |
| 2026-05-05 13:06 | 35.41687 | 25.47502 | 38106 ft | 429 kts | 320° |
| 2026-05-05 13:06 | 35.46377 | 25.42960 | 38105 ft | 429 kts | 320° |
| 2026-05-05 13:07 | 35.51033 | 25.38443 | 38105 ft | 429 kts | 320° |
| 2026-05-05 13:07 | 35.55715 | 25.33894 | 38106 ft | 430 kts | 320° |
| 2026-05-05 13:08 | 35.60401 | 25.29334 | 38100 ft | 430 kts | 321° |
| 2026-05-05 13:08 | 35.65089 | 25.24766 | 38098 ft | 430 kts | 321° |
| 2026-05-05 13:09 | 35.69747 | 25.20220 | 38111 ft | 431 kts | 321° |
| 2026-05-05 13:09 | 35.74440 | 25.15632 | 38103 ft | 431 kts | 320° |
| 2026-05-05 13:10 | 35.79132 | 25.11039 | 38107 ft | 431 kts | 320° |
| 2026-05-05 13:10 | 35.83817 | 25.06445 | 38102 ft | 431 kts | 320° |
| 2026-05-05 13:11 | 35.88474 | 25.01871 | 38105 ft | 431 kts | 320° |
| 2026-05-05 13:11 | 35.93159 | 24.97263 | 38098 ft | 431 kts | 321° |
| 2026-05-05 13:12 | 35.97843 | 24.92648 | 38111 ft | 431 kts | 321° |
| 2026-05-05 13:12 | 36.02525 | 24.88029 | 38110 ft | 431 kts | 321° |
| 2026-05-05 13:13 | 36.07200 | 24.83410 | 38100 ft | 430 kts | 320° |
| 2026-05-05 13:13 | 36.11837 | 24.78817 | 38100 ft | 430 kts | 320° |
| 2026-05-05 13:14 | 36.16500 | 24.74191 | 38098 ft | 429 kts | 320° |
| 2026-05-05 13:14 | 36.21158 | 24.69563 | 38097 ft | 429 kts | 320° |
| 2026-05-05 13:15 | 36.25780 | 24.64964 | 38101 ft | 429 kts | 320° |
| 2026-05-05 13:15 | 36.30432 | 24.60328 | 38098 ft | 429 kts | 320° |
| 2026-05-05 13:16 | 36.35081 | 24.55688 | 38096 ft | 429 kts | 320° |
| 2026-05-05 13:16 | 36.39722 | 24.51048 | 38095 ft | 429 kts | 320° |
| 2026-05-05 13:17 | 36.44365 | 24.46399 | 38095 ft | 429 kts | 320° |
| 2026-05-05 13:17 | 36.48974 | 24.41776 | 38095 ft | 429 kts | 320° |
| 2026-05-05 13:18 | 36.53614 | 24.37115 | 38104 ft | 428 kts | 320° |
| 2026-05-05 13:18 | 36.58245 | 24.32456 | 38098 ft | 429 kts | 320° |
| 2026-05-05 13:19 | 36.62880 | 24.27786 | 38094 ft | 429 kts | 320° |
| 2026-05-05 13:19 | 36.67511 | 24.23111 | 38093 ft | 428 kts | 320° |
| 2026-05-05 13:20 | 36.72110 | 24.18463 | 38089 ft | 428 kts | 320° |
| 2026-05-05 13:20 | 36.76736 | 24.13778 | 38086 ft | 428 kts | 320° |
| 2026-05-05 13:21 | 36.81356 | 24.09092 | 38086 ft | 428 kts | 320° |
| 2026-05-05 13:21 | 36.85977 | 24.04398 | 38088 ft | 428 kts | 320° |
| 2026-05-05 13:22 | 36.90564 | 23.99731 | 38081 ft | 428 kts | 320° |
| 2026-05-05 13:22 | 36.95181 | 23.95029 | 38081 ft | 428 kts | 320° |
| 2026-05-05 13:23 | 36.99795 | 23.90327 | 38080 ft | 428 kts | 320° |
| 2026-05-05 13:23 | 37.04409 | 23.85617 | 38077 ft | 428 kts | 320° |
| 2026-05-05 13:24 | 37.08991 | 23.80931 | 38077 ft | 428 kts | 320° |
| 2026-05-05 13:24 | 37.13603 | 23.76207 | 38078 ft | 428 kts | 320° |
| 2026-05-05 13:25 | 37.18209 | 23.71481 | 38063 ft | 428 kts | 320° |
| 2026-05-05 13:25 | 37.22820 | 23.66741 | 38063 ft | 429 kts | 320° |
| 2026-05-05 13:26 | 37.27406 | 23.62021 | 38067 ft | 429 kts | 320° |
| 2026-05-05 13:26 | 37.32025 | 23.57258 | 38078 ft | 430 kts | 320° |
| 2026-05-05 13:27 | 37.36645 | 23.52486 | 38082 ft | 430 kts | 320° |
| 2026-05-05 13:27 | 37.41272 | 23.47699 | 38085 ft | 430 kts | 320° |
| 2026-05-05 13:28 | 37.45861 | 23.42945 | 38082 ft | 430 kts | 320° |
| 2026-05-05 13:28 | 37.50469 | 23.38163 | 38075 ft | 429 kts | 320° |
| 2026-05-05 13:29 | 37.55076 | 23.33373 | 38064 ft | 429 kts | 320° |
| 2026-05-05 13:29 | 37.59679 | 23.28579 | 38059 ft | 429 kts | 320° |
| 2026-05-05 13:30 | 37.64269 | 23.23791 | 38058 ft | 428 kts | 320° |
| 2026-05-05 13:30 | 37.68831 | 23.19025 | 38055 ft | 429 kts | 320° |
| 2026-05-05 13:31 | 37.73426 | 23.14217 | 38061 ft | 429 kts | 320° |
| 2026-05-05 13:31 | 37.78021 | 23.09400 | 38055 ft | 429 kts | 319° |
| 2026-05-05 13:32 | 37.82610 | 23.04582 | 38054 ft | 429 kts | 319° |
| 2026-05-05 13:32 | 37.87165 | 22.99791 | 38059 ft | 429 kts | 319° |
| 2026-05-05 13:33 | 37.91751 | 22.94960 | 38063 ft | 429 kts | 319° |
| 2026-05-05 13:33 | 37.96188 | 22.89919 | 38063 ft | 429 kts | 317° |
| 2026-05-05 13:34 | 38.00591 | 22.84817 | 38055 ft | 429 kts | 317° |
| 2026-05-05 13:34 | 38.04963 | 22.79744 | 38062 ft | 429 kts | 317° |
| 2026-05-05 13:35 | 38.09358 | 22.74626 | 38063 ft | 429 kts | 316° |
| 2026-05-05 13:35 | 38.13744 | 22.69509 | 38070 ft | 429 kts | 316° |
| 2026-05-05 13:36 | 38.18146 | 22.64395 | 38068 ft | 429 kts | 316° |
| 2026-05-05 13:36 | 38.22518 | 22.59309 | 38067 ft | 429 kts | 316° |
| 2026-05-05 13:37 | 38.26915 | 22.54182 | 38088 ft | 428 kts | 316° |
| 2026-05-05 13:37 | 38.31300 | 22.49058 | 38082 ft | 428 kts | 316° |
| 2026-05-05 13:38 | 38.35677 | 22.43937 | 38078 ft | 427 kts | 316° |
| 2026-05-05 13:38 | 38.40016 | 22.38851 | 38072 ft | 426 kts | 316° |
| 2026-05-05 13:39 | 38.44371 | 22.33736 | 38067 ft | 426 kts | 316° |
| 2026-05-05 13:39 | 38.48723 | 22.28616 | 38069 ft | 425 kts | 316° |
| 2026-05-05 13:40 | 38.53074 | 22.23489 | 38067 ft | 426 kts | 316° |
| 2026-05-05 13:40 | 38.57422 | 22.18392 | 38087 ft | 428 kts | 318° |
| 2026-05-05 13:41 | 38.62074 | 22.13592 | 38104 ft | 431 kts | 319° |
| 2026-05-05 13:41 | 38.66736 | 22.08771 | 38094 ft | 431 kts | 319° |
| 2026-05-05 13:42 | 38.71393 | 22.03947 | 38100 ft | 431 kts | 319° |
| 2026-05-05 13:42 | 38.76018 | 21.99149 | 38094 ft | 430 kts | 319° |
| 2026-05-05 13:43 | 38.80669 | 21.94318 | 38087 ft | 430 kts | 319° |
| 2026-05-05 13:43 | 38.85312 | 21.89485 | 38098 ft | 429 kts | 319° |
| 2026-05-05 13:44 | 38.89949 | 21.84652 | 38090 ft | 429 kts | 319° |
| 2026-05-05 13:44 | 38.94581 | 21.79814 | 38087 ft | 430 kts | 319° |
| 2026-05-05 13:45 | 38.99179 | 21.75005 | 38091 ft | 429 kts | 319° |
| 2026-05-05 13:45 | 39.03811 | 21.70151 | 38081 ft | 430 kts | 319° |
| 2026-05-05 13:46 | 39.08445 | 21.65284 | 38104 ft | 431 kts | 319° |
| 2026-05-05 13:46 | 39.13093 | 21.60397 | 38118 ft | 432 kts | 319° |
| 2026-05-05 13:47 | 39.17744 | 21.55497 | 38117 ft | 432 kts | 319° |
| 2026-05-05 13:47 | 39.22363 | 21.50622 | 38119 ft | 432 kts | 319° |
| 2026-05-05 13:48 | 39.27007 | 21.45712 | 38117 ft | 432 kts | 319° |
| 2026-05-05 13:48 | 39.31647 | 21.40799 | 38114 ft | 432 kts | 319° |
| 2026-05-05 13:49 | 39.36267 | 21.35900 | 38102 ft | 433 kts | 319° |
| 2026-05-05 13:49 | 39.40862 | 21.31017 | 38087 ft | 425 kts | 319° |
| 2026-05-05 13:50 | 39.45431 | 21.26153 | 38093 ft | 426 kts | 319° |
| 2026-05-05 13:50 | 39.50014 | 21.21263 | 38085 ft | 426 kts | 319° |
| 2026-05-05 13:51 | 39.54583 | 21.16384 | 38089 ft | 426 kts | 319° |
| 2026-05-05 13:51 | 39.59124 | 21.11523 | 38090 ft | 427 kts | 318° |
| 2026-05-05 13:52 | 39.63716 | 21.06598 | 38111 ft | 430 kts | 318° |
| 2026-05-05 13:52 | 39.68330 | 21.01644 | 38120 ft | 431 kts | 318° |
| 2026-05-05 13:53 | 39.72909 | 20.96715 | 38118 ft | 430 kts | 318° |
| 2026-05-05 13:53 | 39.77510 | 20.91754 | 38113 ft | 429 kts | 318° |
| 2026-05-05 13:54 | 39.82102 | 20.86796 | 38108 ft | 429 kts | 318° |
| 2026-05-05 13:54 | 39.86685 | 20.81839 | 38108 ft | 428 kts | 318° |
| 2026-05-05 13:55 | 39.91229 | 20.76915 | 38085 ft | 427 kts | 318° |
| 2026-05-05 13:55 | 39.95800 | 20.71952 | 38082 ft | 427 kts | 318° |
| 2026-05-05 13:56 | 40.00367 | 20.66984 | 38066 ft | 428 kts | 318° |
| 2026-05-05 13:56 | 40.04935 | 20.62008 | 38067 ft | 428 kts | 318° |
| 2026-05-05 13:57 | 40.09793 | 20.57497 | 38069 ft | 431 kts | 327° |
| 2026-05-05 13:57 | 40.14913 | 20.53541 | 38070 ft | 431 kts | 326° |
| 2026-05-05 13:58 | 40.20062 | 20.49512 | 38078 ft | 431 kts | 326° |
| 2026-05-05 13:58 | 40.25225 | 20.45482 | 38081 ft | 433 kts | 326° |
| 2026-05-05 13:59 | 40.32978 | 20.39423 | 38087 ft | 433 kts | 326° |
| 2026-05-05 14:00 | 40.39867 | 20.34023 | 38090 ft | 434 kts | 326° |
| 2026-05-05 14:00 | 40.45880 | 20.29299 | 38092 ft | 433 kts | 326° |
| 2026-05-05 14:01 | 40.51055 | 20.25225 | 38093 ft | 433 kts | 326° |
| 2026-05-05 14:01 | 40.56223 | 20.21149 | 38092 ft | 433 kts | 326° |
| 2026-05-05 14:02 | 40.61378 | 20.17076 | 38103 ft | 432 kts | 326° |
| 2026-05-05 14:02 | 40.66507 | 20.13016 | 38068 ft | 434 kts | 326° |
| 2026-05-05 14:03 | 40.71682 | 20.08912 | 38076 ft | 434 kts | 326° |
| 2026-05-05 14:03 | 40.76861 | 20.04798 | 38077 ft | 435 kts | 326° |
| 2026-05-05 14:04 | 40.82041 | 20.00674 | 38081 ft | 436 kts | 326° |
| 2026-05-05 14:04 | 40.87200 | 19.96561 | 38096 ft | 436 kts | 326° |
| 2026-05-05 14:05 | 40.92390 | 19.92416 | 38104 ft | 436 kts | 326° |
| 2026-05-05 14:05 | 40.97582 | 19.88260 | 38105 ft | 436 kts | 326° |
| 2026-05-05 14:06 | 41.02770 | 19.84099 | 38103 ft | 436 kts | 326° |
| 2026-05-05 14:06 | 41.07952 | 19.79936 | 38107 ft | 435 kts | 326° |
| 2026-05-05 14:07 | 41.13085 | 19.75806 | 38119 ft | 434 kts | 325° |
| 2026-05-05 14:07 | 41.18239 | 19.71650 | 38109 ft | 433 kts | 325° |
| 2026-05-05 14:08 | 41.23375 | 19.67500 | 38103 ft | 432 kts | 325° |
| 2026-05-05 14:08 | 41.28511 | 19.63344 | 38100 ft | 432 kts | 325° |
| 2026-05-05 14:09 | 41.33605 | 19.59213 | 38084 ft | 432 kts | 325° |
| 2026-05-05 14:09 | 41.38732 | 19.55048 | 38084 ft | 432 kts | 325° |
| 2026-05-05 14:10 | 41.43862 | 19.50872 | 38081 ft | 432 kts | 325° |
| 2026-05-05 14:10 | 41.48993 | 19.46689 | 38088 ft | 432 kts | 325° |
| 2026-05-05 14:11 | 41.54123 | 19.42499 | 38101 ft | 432 kts | 325° |
| 2026-05-05 14:11 | 41.59252 | 19.38300 | 38100 ft | 433 kts | 324° |
| 2026-05-05 14:12 | 41.64381 | 19.34094 | 38098 ft | 433 kts | 324° |
| 2026-05-05 14:12 | 41.69482 | 19.29903 | 38103 ft | 433 kts | 324° |
| 2026-05-05 14:13 | 41.74620 | 19.25673 | 38103 ft | 433 kts | 324° |
| 2026-05-05 14:13 | 41.79754 | 19.21439 | 38111 ft | 433 kts | 324° |
| 2026-05-05 14:14 | 41.84895 | 19.17191 | 38069 ft | 435 kts | 324° |
| 2026-05-05 14:14 | 41.90008 | 19.12958 | 38090 ft | 435 kts | 324° |
| 2026-05-05 14:15 | 41.95168 | 19.08679 | 38083 ft | 436 kts | 324° |
| 2026-05-05 14:15 | 42.00338 | 19.04382 | 38096 ft | 437 kts | 324° |
| 2026-05-05 14:16 | 42.05515 | 19.00070 | 38064 ft | 439 kts | 324° |
| 2026-05-05 14:16 | 42.10684 | 18.95758 | 38076 ft | 441 kts | 324° |
| 2026-05-05 14:17 | 42.15897 | 18.91400 | 38102 ft | 441 kts | 324° |
| 2026-05-05 14:17 | 42.21121 | 18.87026 | 38110 ft | 442 kts | 324° |
| 2026-05-05 14:18 | 42.26344 | 18.82643 | 38119 ft | 443 kts | 324° |
| 2026-05-05 14:18 | 42.31577 | 18.78242 | 38106 ft | 443 kts | 324° |
| 2026-05-05 14:19 | 42.36763 | 18.73873 | 38108 ft | 441 kts | 324° |
| 2026-05-05 14:19 | 42.41969 | 18.69478 | 38110 ft | 442 kts | 324° |
| 2026-05-05 14:20 | 42.47185 | 18.65066 | 38098 ft | 442 kts | 324° |
| 2026-05-05 14:20 | 42.52406 | 18.60641 | 38088 ft | 443 kts | 324° |
| 2026-05-05 14:21 | 42.57643 | 18.56193 | 38094 ft | 445 kts | 324° |
| 2026-05-05 14:21 | 42.62860 | 18.51754 | 38135 ft | 446 kts | 324° |
| 2026-05-05 14:22 | 42.68123 | 18.47266 | 38128 ft | 447 kts | 324° |
| 2026-05-05 14:22 | 42.73391 | 18.42766 | 38107 ft | 448 kts | 324° |
| 2026-05-05 14:23 | 42.78634 | 18.38276 | 38104 ft | 448 kts | 324° |
| 2026-05-05 14:23 | 42.83919 | 18.33741 | 38103 ft | 449 kts | 324° |
| 2026-05-05 14:24 | 42.89203 | 18.29199 | 38096 ft | 450 kts | 324° |
| 2026-05-05 14:24 | 42.94494 | 18.24642 | 38097 ft | 450 kts | 324° |
| 2026-05-05 14:25 | 42.99787 | 18.20073 | 38084 ft | 450 kts | 324° |
| 2026-05-05 14:25 | 43.05048 | 18.15523 | 38081 ft | 451 kts | 324° |
| 2026-05-05 14:26 | 43.10344 | 18.10932 | 38080 ft | 450 kts | 324° |
| 2026-05-05 14:26 | 43.15635 | 18.06337 | 38076 ft | 450 kts | 324° |
| 2026-05-05 14:27 | 43.20931 | 18.01727 | 38067 ft | 451 kts | 324° |
| 2026-05-05 14:27 | 43.26195 | 17.97135 | 38069 ft | 452 kts | 324° |
| 2026-05-05 14:28 | 43.31507 | 17.92493 | 38078 ft | 453 kts | 324° |
| 2026-05-05 14:28 | 43.36826 | 17.87834 | 38083 ft | 454 kts | 324° |
| 2026-05-05 14:29 | 43.42145 | 17.83167 | 38082 ft | 453 kts | 324° |
| 2026-05-05 14:29 | 43.47404 | 17.78540 | 38045 ft | 451 kts | 324° |
| 2026-05-05 14:30 | 43.52687 | 17.73885 | 38047 ft | 451 kts | 324° |
| 2026-05-05 14:30 | 43.57972 | 17.69215 | 38051 ft | 451 kts | 324° |
| 2026-05-05 14:31 | 43.63264 | 17.64532 | 38036 ft | 453 kts | 323° |
| 2026-05-05 14:31 | 43.68540 | 17.59857 | 38052 ft | 455 kts | 324° |
| 2026-05-05 14:32 | 43.73831 | 17.55060 | 38057 ft | 454 kts | 320° |
| 2026-05-05 14:32 | 43.78665 | 17.49487 | 38066 ft | 451 kts | 313° |
| 2026-05-05 14:33 | 43.83233 | 17.43528 | 38055 ft | 451 kts | 314° |
| 2026-05-05 14:33 | 43.87795 | 17.37636 | 38055 ft | 452 kts | 314° |
| 2026-05-05 14:34 | 43.92391 | 17.31658 | 38049 ft | 453 kts | 314° |
| 2026-05-05 14:34 | 43.96976 | 17.25670 | 38057 ft | 453 kts | 314° |
| 2026-05-05 14:35 | 44.01563 | 17.19664 | 38056 ft | 453 kts | 314° |
| 2026-05-05 14:35 | 44.06145 | 17.13653 | 38051 ft | 453 kts | 313° |
| 2026-05-05 14:36 | 44.10688 | 17.07678 | 38032 ft | 453 kts | 313° |
| 2026-05-05 14:36 | 44.15267 | 17.01641 | 38039 ft | 453 kts | 314° |
| 2026-05-05 14:37 | 44.19846 | 16.95592 | 38025 ft | 454 kts | 314° |
| 2026-05-05 14:37 | 44.24423 | 16.89534 | 38029 ft | 454 kts | 313° |
| 2026-05-05 14:38 | 44.28976 | 16.83491 | 38029 ft | 455 kts | 313° |
| 2026-05-05 14:38 | 44.33765 | 16.77698 | 38048 ft | 457 kts | 317° |
| 2026-05-05 14:39 | 44.38665 | 16.72006 | 38020 ft | 459 kts | 317° |
| 2026-05-05 14:39 | 44.43573 | 16.66286 | 38035 ft | 460 kts | 317° |
| 2026-05-05 14:40 | 44.47652 | 16.61523 | 38026 ft | 460 kts | 317° |
| 2026-05-05 14:40 | 44.53361 | 16.54844 | 38036 ft | 460 kts | 317° |
| 2026-05-05 14:41 | 44.58273 | 16.49082 | 38022 ft | 461 kts | 317° |
| 2026-05-05 14:41 | 44.63190 | 16.43300 | 38020 ft | 461 kts | 317° |
| 2026-05-05 14:42 | 44.67278 | 16.38485 | 38013 ft | 461 kts | 317° |
| 2026-05-05 14:42 | 44.72978 | 16.31753 | 38013 ft | 461 kts | 317° |
| 2026-05-05 14:43 | 44.77888 | 16.25940 | 38003 ft | 461 kts | 317° |
| 2026-05-05 14:43 | 44.82797 | 16.20116 | 37980 ft | 462 kts | 317° |
| 2026-05-05 14:44 | 44.86879 | 16.15261 | 38016 ft | 462 kts | 317° |
| 2026-05-05 14:44 | 44.92581 | 16.08467 | 38002 ft | 462 kts | 317° |
| 2026-05-05 14:45 | 44.96685 | 16.03564 | 38000 ft | 462 kts | 317° |
| 2026-05-05 14:45 | 45.01553 | 15.97736 | 38000 ft | 462 kts | 317° |
| 2026-05-05 14:46 | 45.06453 | 15.91856 | 37972 ft | 463 kts | 317° |
| 2026-05-05 14:46 | 45.12147 | 15.85007 | 38018 ft | 462 kts | 316° |
| 2026-05-05 14:47 | 45.16250 | 15.80060 | 37980 ft | 462 kts | 316° |
| 2026-05-05 14:47 | 45.21101 | 15.74198 | 37992 ft | 462 kts | 316° |
| 2026-05-05 14:48 | 45.25982 | 15.68286 | 37985 ft | 461 kts | 316° |
| 2026-05-05 14:48 | 45.30856 | 15.62369 | 37979 ft | 462 kts | 316° |
| 2026-05-05 14:49 | 45.35737 | 15.56430 | 37979 ft | 462 kts | 316° |
| 2026-05-05 14:49 | 45.40584 | 15.50517 | 37981 ft | 462 kts | 316° |
| 2026-05-05 14:50 | 45.45464 | 15.44552 | 37986 ft | 462 kts | 316° |
| 2026-05-05 14:50 | 45.50344 | 15.38571 | 37998 ft | 463 kts | 316° |
| 2026-05-05 14:51 | 45.55221 | 15.32582 | 37983 ft | 464 kts | 316° |
| 2026-05-05 14:51 | 45.59751 | 15.26087 | 37985 ft | 460 kts | 307° |
| 2026-05-05 14:52 | 45.63930 | 15.19222 | 37982 ft | 461 kts | 308° |
| 2026-05-05 14:52 | 45.68170 | 15.12332 | 37990 ft | 462 kts | 308° |
| 2026-05-05 14:53 | 45.72398 | 15.05412 | 38011 ft | 462 kts | 308° |
| 2026-05-05 14:53 | 45.76628 | 14.98461 | 38005 ft | 463 kts | 308° |
| 2026-05-05 14:54 | 45.80820 | 14.91552 | 38011 ft | 462 kts | 308° |
| 2026-05-05 14:54 | 45.85028 | 14.84601 | 38001 ft | 461 kts | 308° |
| 2026-05-05 14:55 | 45.89227 | 14.77646 | 37996 ft | 461 kts | 308° |
| 2026-05-05 14:55 | 45.93418 | 14.70686 | 38000 ft | 461 kts | 308° |
| 2026-05-05 14:56 | 45.97603 | 14.63720 | 38005 ft | 460 kts | 308° |
| 2026-05-05 14:56 | 46.01757 | 14.56813 | 38007 ft | 460 kts | 308° |
| 2026-05-05 14:57 | 46.05942 | 14.49848 | 37998 ft | 460 kts | 308° |
| 2026-05-05 14:57 | 46.10123 | 14.42867 | 38019 ft | 460 kts | 308° |
| 2026-05-05 14:58 | 46.14277 | 14.35914 | 38010 ft | 461 kts | 308° |
| 2026-05-05 14:58 | 46.18452 | 14.28905 | 38010 ft | 461 kts | 308° |
| 2026-05-05 14:59 | 46.22632 | 14.21871 | 38015 ft | 462 kts | 308° |
| 2026-05-05 14:59 | 46.26815 | 14.14814 | 38016 ft | 463 kts | 308° |
| 2026-05-05 15:00 | 46.30292 | 14.08937 | 38015 ft | 463 kts | 307° |
| 2026-05-05 15:00 | 46.35156 | 14.00689 | 38003 ft | 464 kts | 307° |
| 2026-05-05 15:01 | 46.39344 | 13.93569 | 37993 ft | 464 kts | 307° |
| 2026-05-05 15:01 | 46.43532 | 13.86428 | 37994 ft | 465 kts | 307° |
| 2026-05-05 15:02 | 46.47716 | 13.79278 | 38002 ft | 466 kts | 307° |
| 2026-05-05 15:02 | 46.51877 | 13.72150 | 37996 ft | 466 kts | 307° |
| 2026-05-05 15:03 | 46.56146 | 13.65048 | 37999 ft | 467 kts | 308° |
| 2026-05-05 15:03 | 46.60480 | 13.58036 | 37980 ft | 467 kts | 308° |
| 2026-05-05 15:04 | 46.64800 | 13.50986 | 37979 ft | 466 kts | 308° |
| 2026-05-05 15:04 | 46.69077 | 13.43964 | 37963 ft | 467 kts | 308° |
| 2026-05-05 15:05 | 46.75532 | 13.33323 | 37965 ft | 467 kts | 308° |
| 2026-05-05 15:06 | 46.79831 | 13.26213 | 37954 ft | 467 kts | 308° |
| 2026-05-05 15:06 | 46.84102 | 13.19132 | 37946 ft | 468 kts | 308° |
| 2026-05-05 15:07 | 46.88402 | 13.11984 | 37917 ft | 469 kts | 308° |
| 2026-05-05 15:07 | 46.92696 | 13.04827 | 37918 ft | 468 kts | 308° |
| 2026-05-05 15:08 | 46.96979 | 12.97671 | 37929 ft | 468 kts | 308° |
| 2026-05-05 15:08 | 47.01246 | 12.90518 | 37914 ft | 470 kts | 307° |
| 2026-05-05 15:09 | 47.05553 | 12.83280 | 37926 ft | 472 kts | 307° |
| 2026-05-05 15:09 | 47.09860 | 12.76029 | 37906 ft | 471 kts | 308° |
| 2026-05-05 15:10 | 47.14150 | 12.68783 | 37891 ft | 470 kts | 308° |
| 2026-05-05 15:10 | 47.18426 | 12.61540 | 37893 ft | 470 kts | 308° |
| 2026-05-05 15:11 | 47.22678 | 12.54317 | 37874 ft | 470 kts | 308° |
| 2026-05-05 15:11 | 47.26956 | 12.47032 | 37877 ft | 471 kts | 307° |
| 2026-05-05 15:12 | 47.31241 | 12.39718 | 37851 ft | 470 kts | 307° |
| 2026-05-05 15:12 | 47.35492 | 12.32442 | 37845 ft | 468 kts | 307° |
| 2026-05-05 15:13 | 47.39712 | 12.25194 | 37824 ft | 468 kts | 307° |
| 2026-05-05 15:13 | 47.43962 | 12.17880 | 37808 ft | 469 kts | 307° |
| 2026-05-05 15:14 | 47.48212 | 12.10544 | 37811 ft | 470 kts | 307° |
| 2026-05-05 15:14 | 47.52063 | 12.02826 | 37791 ft | 464 kts | 296° |
| 2026-05-05 15:15 | 47.54549 | 11.94154 | 37788 ft | 459 kts | 283° |
| 2026-05-05 15:15 | 47.55858 | 11.84944 | 37789 ft | 457 kts | 278° |
| 2026-05-05 15:16 | 47.57092 | 11.75711 | 37797 ft | 458 kts | 278° |
| 2026-05-05 15:16 | 47.58311 | 11.66467 | 37789 ft | 457 kts | 278° |
| 2026-05-05 15:17 | 47.59510 | 11.57204 | 37796 ft | 458 kts | 277° |
| 2026-05-05 15:17 | 47.60692 | 11.47993 | 37799 ft | 458 kts | 277° |
| 2026-05-05 15:18 | 47.61875 | 11.38728 | 37812 ft | 458 kts | 277° |
| 2026-05-05 15:18 | 47.63054 | 11.29446 | 37821 ft | 458 kts | 277° |
| 2026-05-05 15:19 | 47.64223 | 11.20170 | 37814 ft | 457 kts | 277° |
| 2026-05-05 15:19 | 47.65375 | 11.10963 | 37824 ft | 457 kts | 277° |
| 2026-05-05 15:20 | 47.66528 | 11.01683 | 37826 ft | 457 kts | 277° |
| 2026-05-05 15:20 | 47.67669 | 10.92450 | 37252 ft | 454 kts | 276° |
| 2026-05-05 15:20 | 47.68236 | 10.87827 | 36370 ft | 458 kts | 276° |
| 2026-05-05 15:21 | 47.68807 | 10.83150 | 35347 ft | 464 kts | 276° |
| 2026-05-05 15:21 | 47.69381 | 10.78429 | 34592 ft | 465 kts | 276° |
| 2026-05-05 15:21 | 47.69946 | 10.73794 | 34051 ft | 460 kts | 275° |
| 2026-05-05 15:21 | 47.70510 | 10.69154 | 33506 ft | 455 kts | 275° |
| 2026-05-05 15:22 | 47.71065 | 10.64563 | 32989 ft | 449 kts | 275° |
| 2026-05-05 15:22 | 47.71610 | 10.60029 | 32513 ft | 443 kts | 275° |
| 2026-05-05 15:22 | 47.72147 | 10.55544 | 32043 ft | 439 kts | 275° |
| 2026-05-05 15:22 | 47.72677 | 10.51096 | 31505 ft | 436 kts | 275° |
| 2026-05-05 15:23 | 47.73201 | 10.46683 | 31017 ft | 432 kts | 275° |
| 2026-05-05 15:23 | 47.73720 | 10.42303 | 30523 ft | 429 kts | 276° |
| 2026-05-05 15:23 | 47.74222 | 10.37950 | 30036 ft | 426 kts | 274° |
| 2026-05-05 15:23 | 47.74490 | 10.33659 | 29513 ft | 420 kts | 268° |
| 2026-05-05 15:24 | 47.74464 | 10.29363 | 29039 ft | 412 kts | 263° |
| 2026-05-05 15:24 | 47.74348 | 10.25126 | 28565 ft | 408 kts | 264° |
| 2026-05-05 15:24 | 47.74255 | 10.20931 | 28103 ft | 404 kts | 264° |
| 2026-05-05 15:24 | 47.74166 | 10.16777 | 27630 ft | 401 kts | 264° |
| 2026-05-05 15:25 | 47.74075 | 10.12660 | 27182 ft | 397 kts | 264° |
| 2026-05-05 15:25 | 47.73981 | 10.08575 | 26710 ft | 394 kts | 264° |
| 2026-05-05 15:25 | 47.73885 | 10.04525 | 26247 ft | 391 kts | 264° |
| 2026-05-05 15:25 | 47.73789 | 10.00563 | 25798 ft | 388 kts | 264° |
| 2026-05-05 15:26 | 47.73690 | 9.96570 | 25341 ft | 385 kts | 264° |
| 2026-05-05 15:26 | 47.73591 | 9.92607 | 24897 ft | 383 kts | 264° |
| 2026-05-05 15:26 | 47.73491 | 9.88670 | 24440 ft | 380 kts | 264° |
| 2026-05-05 15:26 | 47.73391 | 9.84756 | 24005 ft | 378 kts | 264° |
| 2026-05-05 15:27 | 47.73290 | 9.80859 | 23560 ft | 376 kts | 264° |
| 2026-05-05 15:27 | 47.73189 | 9.76985 | 23057 ft | 374 kts | 264° |
| 2026-05-05 15:27 | 47.73087 | 9.73145 | 22619 ft | 370 kts | 264° |
| 2026-05-05 15:27 | 47.72985 | 9.69351 | 22205 ft | 367 kts | 264° |
| 2026-05-05 15:28 | 47.72883 | 9.65635 | 21768 ft | 364 kts | 265° |
| 2026-05-05 15:28 | 47.72780 | 9.61897 | 21329 ft | 361 kts | 265° |
| 2026-05-05 15:28 | 47.72675 | 9.58185 | 20896 ft | 358 kts | 265° |
| 2026-05-05 15:28 | 47.72571 | 9.54508 | 20452 ft | 355 kts | 265° |
| 2026-05-05 15:29 | 47.72465 | 9.50853 | 20035 ft | 353 kts | 265° |
| 2026-05-05 15:29 | 47.72351 | 9.47225 | 19616 ft | 350 kts | 262° |
| 2026-05-05 15:29 | 47.71886 | 9.43717 | 19184 ft | 345 kts | 249° |
| 2026-05-05 15:29 | 47.70916 | 9.40550 | 18774 ft | 340 kts | 237° |
| 2026-05-05 15:30 | 47.69513 | 9.37751 | 18359 ft | 337 kts | 229° |
| 2026-05-05 15:30 | 47.68015 | 9.35078 | 17923 ft | 335 kts | 230° |
| 2026-05-05 15:30 | 47.66548 | 9.32410 | 17496 ft | 332 kts | 230° |
| 2026-05-05 15:30 | 47.65100 | 9.29764 | 17086 ft | 329 kts | 230° |
| 2026-05-05 15:31 | 47.63663 | 9.27143 | 16680 ft | 326 kts | 230° |
| 2026-05-05 15:31 | 47.62236 | 9.24547 | 16273 ft | 324 kts | 230° |
| 2026-05-05 15:31 | 47.60828 | 9.21969 | 15883 ft | 320 kts | 232° |
| 2026-05-05 15:31 | 47.59672 | 9.19157 | 15486 ft | 319 kts | 244° |
| 2026-05-05 15:32 | 47.58923 | 9.16121 | 15104 ft | 318 kts | 254° |
| 2026-05-05 15:32 | 47.58515 | 9.12859 | 14884 ft | 331 kts | 258° |
| 2026-05-05 15:32 | 47.58110 | 9.09448 | 14849 ft | 341 kts | 258° |
| 2026-05-05 15:32 | 47.57761 | 9.05968 | 14764 ft | 343 kts | 265° |
| 2026-05-05 15:33 | 47.57909 | 9.02431 | 14360 ft | 348 kts | 278° |
| 2026-05-05 15:33 | 47.58633 | 8.98984 | 13700 ft | 354 kts | 289° |
| 2026-05-05 15:33 | 47.59588 | 8.95588 | 12789 ft | 360 kts | 290° |
| 2026-05-05 15:33 | 47.60542 | 8.92167 | 12141 ft | 358 kts | 289° |
| 2026-05-05 15:34 | 47.61480 | 8.88762 | 11535 ft | 355 kts | 289° |
| 2026-05-05 15:34 | 47.62395 | 8.85419 | 11207 ft | 344 kts | 289° |
| 2026-05-05 15:34 | 47.63035 | 8.82122 | 10826 ft | 332 kts | 274° |
| 2026-05-05 15:34 | 47.62915 | 8.78787 | 10530 ft | 318 kts | 255° |
| 2026-05-05 15:35 | 47.62173 | 8.75803 | 10403 ft | 301 kts | 245° |
| 2026-05-05 15:35 | 47.61370 | 8.73008 | 10289 ft | 288 kts | 246° |
| 2026-05-05 15:35 | 47.60621 | 8.70330 | 10185 ft | 276 kts | 246° |
| 2026-05-05 15:35 | 47.59902 | 8.67751 | 9982 ft | 268 kts | 246° |
| 2026-05-05 15:36 | 47.59184 | 8.65195 | 9681 ft | 267 kts | 246° |
| 2026-05-05 15:36 | 47.58679 | 8.62571 | 9483 ft | 269 kts | 264° |
| 2026-05-05 15:36 | 47.58946 | 8.59885 | 9268 ft | 270 kts | 287° |
| 2026-05-05 15:36 | 47.59980 | 8.57561 | 9018 ft | 274 kts | 311° |
| 2026-05-05 15:37 | 47.61394 | 8.55692 | 8759 ft | 270 kts | 313° |
| 2026-05-05 15:37 | 47.62777 | 8.53833 | 8489 ft | 266 kts | 312° |
| 2026-05-05 15:37 | 47.64127 | 8.51987 | 8226 ft | 262 kts | 312° |
| 2026-05-05 15:37 | 47.65452 | 8.50167 | 8002 ft | 259 kts | 312° |
| 2026-05-05 15:38 | 47.66765 | 8.48359 | 7761 ft | 257 kts | 312° |
| 2026-05-05 15:38 | 47.68086 | 8.46540 | 7501 ft | 259 kts | 312° |
| 2026-05-05 15:38 | 47.69393 | 8.44742 | 7228 ft | 260 kts | 313° |
| 2026-05-05 15:38 | 47.70709 | 8.42935 | 6982 ft | 257 kts | 312° |
| 2026-05-05 15:39 | 47.72020 | 8.41138 | 6739 ft | 255 kts | 311° |
| 2026-05-05 15:39 | 47.73283 | 8.39306 | 6473 ft | 250 kts | 302° |
| 2026-05-05 15:39 | 47.74053 | 8.37053 | 6243 ft | 241 kts | 278° |
| 2026-05-05 15:39 | 47.74045 | 8.34647 | 5992 ft | 232 kts | 252° |
| 2026-05-05 15:40 | 47.73297 | 8.32579 | 5828 ft | 227 kts | 227° |
| 2026-05-05 15:40 | 47.72220 | 8.30939 | 5843 ft | 217 kts | 226° |
| 2026-05-05 15:40 | 47.71232 | 8.29364 | 5841 ft | 207 kts | 227° |
| 2026-05-05 15:40 | 47.70266 | 8.27841 | 5848 ft | 202 kts | 221° |
| 2026-05-05 15:41 | 47.68970 | 8.27046 | 5859 ft | 211 kts | 184° |
| 2026-05-05 15:41 | 47.67525 | 8.27614 | 5828 ft | 221 kts | 156° |
| 2026-05-05 15:41 | 47.66260 | 8.28950 | 5721 ft | 226 kts | 145° |
| 2026-05-05 15:41 | 47.65097 | 8.30521 | 5600 ft | 224 kts | 141° |
| 2026-05-05 15:42 | 47.63962 | 8.32095 | 5192 ft | 223 kts | 143° |
| 2026-05-05 15:42 | 47.62838 | 8.33625 | 4556 ft | 217 kts | 141° |
| 2026-05-05 15:42 | 47.61734 | 8.35139 | 4014 ft | 217 kts | 141° |
| 2026-05-05 15:42 | 47.60620 | 8.36664 | 3860 ft | 219 kts | 140° |
| 2026-05-05 15:43 | 47.59523 | 8.38168 | 3850 ft | 214 kts | 140° |
| 2026-05-05 15:43 | 47.58466 | 8.39617 | 3837 ft | 202 kts | 141° |
| 2026-05-05 15:43 | 47.57458 | 8.40992 | 3853 ft | 191 kts | 141° |
| 2026-05-05 15:43 | 47.56517 | 8.42278 | 3632 ft | 178 kts | 141° |
| 2026-05-05 15:44 | 47.55627 | 8.43496 | 3410 ft | 172 kts | 141° |
| 2026-05-05 15:44 | 47.54756 | 8.44681 | 3195 ft | 168 kts | 141° |
| 2026-05-05 15:44 | 47.53898 | 8.45852 | 2965 ft | 167 kts | 141° |
| 2026-05-05 15:44 | 47.53059 | 8.46984 | 2775 ft | 167 kts | 141° |
| 2026-05-05 15:45 | 47.52203 | 8.48167 | 2538 ft | 170 kts | 140° |
| 2026-05-05 15:45 | 47.51351 | 8.49328 | 2303 ft | 161 kts | 141° |
| 2026-05-05 15:45 | 47.50549 | 8.50425 | 2069 ft | 154 kts | 140° |
| 2026-05-05 15:45 | 47.49757 | 8.51486 | 1888 ft | 153 kts | 139° |
| 2026-05-05 15:46 | 47.48985 | 8.52579 | 1667 ft | 153 kts | 140° |
| 2026-05-05 15:46 | 47.48195 | 8.53646 | 1441 ft | 155 kts | 142° |
| 2026-05-05 15:46 | 47.47476 | 8.54591 | 1407 ft | 117 kts | 139° |
| 2026-05-05 15:46 | 47.46981 | 8.55279 | 1402 ft | 84 kts | 135° |
| 2026-05-05 15:47 | 47.46690 | 8.55681 | 1409 ft | 44 kts | 137° |
| 2026-05-05 15:47 | 47.46609 | 8.55791 | 1401 ft | 17 kts | 140° |
| 2026-05-05 15:47 | 47.46465 | 8.55919 | 1411 ft | 18 kts | 160° |
| 2026-05-05 15:47 | 47.46347 | 8.55968 | 1413 ft | 17 kts | 167° |
| 2026-05-05 15:48 | 47.46238 | 8.56005 | 1415 ft | 15 kts | 165° |
| 2026-05-05 15:48 | 47.46141 | 8.56021 | 1412 ft | 14 kts | 193° |
| 2026-05-05 15:48 | 47.46008 | 8.55976 | 1415 ft | 23 kts | 189° |
| 2026-05-05 15:48 | 47.45939 | 8.55894 | 1417 ft | 13 kts | 269° |
| 2026-05-05 15:49 | 47.45947 | 8.55751 | 1409 ft | 15 kts | 277° |
| 2026-05-05 15:49 | 47.45960 | 8.55587 | 1409 ft | 17 kts | 276° |
| 2026-05-05 15:49 | 47.45971 | 8.55413 | 1408 ft | 11 kts | 275° |
| 2026-05-05 15:49 | 47.45977 | 8.55346 | 1404 ft | 3 kts | 305° |
| 2026-05-05 15:50 | 47.46001 | 8.55328 | 1407 ft | 5 kts | 0° |
| 2026-05-05 15:50 | 47.46034 | 8.55332 | 1408 ft | 0 kts | 7° |
| 2026-05-05 15:50 | 47.46045 | 8.55334 | 1408 ft | 1 kts | 7° |
| 2026-05-05 15:50 | 47.46058 | 8.55337 | 1408 ft | 0 kts | 6° |